<?xml version="1.0" encoding="UTF-8" standalone="no" ?>
<gpx xmlns="http://www.topografix.com/GPX/1/1" xmlns:xsi="http://www.w3.org/2001/XMLSchema-instance" xsi:schemaLocation="http://www.topografix.com/GPX/1/1 http://www.topografix.com/GPX/1/1/gpx.xsd" version="1.1" creator="VisuGPX - https://www.visugpx.com">
  <metadata>
    <name>Rando - En partant de Vaunaveys</name>
    <desc><![CDATA[Bien jolie rando avec de beaux points de vue.]]></desc>
  </metadata>
  <trk>
    <name><![CDATA[10-JUIL-22 10:27:52]]></name>
    <trkseg>
      <trkpt lat="44.76803" lon="5.0347">
        <ele>195.77</ele>
        <time>2022-07-10T05:49:03Z</time>
      </trkpt>
      <trkpt lat="44.76805" lon="5.03468">
        <ele>195.77</ele>
        <time>2022-07-10T05:49:04Z</time>
      </trkpt>
      <trkpt lat="44.76812" lon="5.03477">
        <ele>195.77</ele>
        <time>2022-07-10T05:49:21Z</time>
      </trkpt>
      <trkpt lat="44.76814" lon="5.03489">
        <ele>196.25</ele>
        <time>2022-07-10T05:49:30Z</time>
      </trkpt>
      <trkpt lat="44.76822" lon="5.03505">
        <ele>195.28</ele>
        <time>2022-07-10T05:49:46Z</time>
      </trkpt>
      <trkpt lat="44.76824" lon="5.03507">
        <ele>195.28</ele>
        <time>2022-07-10T05:49:48Z</time>
      </trkpt>
      <trkpt lat="44.76826" lon="5.03509">
        <ele>194.8</ele>
        <time>2022-07-10T05:49:50Z</time>
      </trkpt>
      <trkpt lat="44.76833" lon="5.03529">
        <ele>193.84</ele>
        <time>2022-07-10T05:50:02Z</time>
      </trkpt>
      <trkpt lat="44.76834" lon="5.03543">
        <ele>192.88</ele>
        <time>2022-07-10T05:50:10Z</time>
      </trkpt>
      <trkpt lat="44.76833" lon="5.03552">
        <ele>192.88</ele>
        <time>2022-07-10T05:50:16Z</time>
      </trkpt>
      <trkpt lat="44.76833" lon="5.03559">
        <ele>192.88</ele>
        <time>2022-07-10T05:50:19Z</time>
      </trkpt>
      <trkpt lat="44.7683" lon="5.03578">
        <ele>194.32</ele>
        <time>2022-07-10T05:50:37Z</time>
      </trkpt>
      <trkpt lat="44.7683" lon="5.03579">
        <ele>194.32</ele>
        <time>2022-07-10T05:50:38Z</time>
      </trkpt>
      <trkpt lat="44.76828" lon="5.03585">
        <ele>195.28</ele>
        <time>2022-07-10T05:50:41Z</time>
      </trkpt>
      <trkpt lat="44.76827" lon="5.03599">
        <ele>196.25</ele>
        <time>2022-07-10T05:50:48Z</time>
      </trkpt>
      <trkpt lat="44.76822" lon="5.03623">
        <ele>197.21</ele>
        <time>2022-07-10T05:50:57Z</time>
      </trkpt>
      <trkpt lat="44.76821" lon="5.03636">
        <ele>198.65</ele>
        <time>2022-07-10T05:51:02Z</time>
      </trkpt>
      <trkpt lat="44.76821" lon="5.03638">
        <ele>198.65</ele>
        <time>2022-07-10T05:51:03Z</time>
      </trkpt>
      <trkpt lat="44.76822" lon="5.03646">
        <ele>200.09</ele>
        <time>2022-07-10T05:51:07Z</time>
      </trkpt>
      <trkpt lat="44.76823" lon="5.03648">
        <ele>200.09</ele>
        <time>2022-07-10T05:51:09Z</time>
      </trkpt>
      <trkpt lat="44.76827" lon="5.03657">
        <ele>201.53</ele>
        <time>2022-07-10T05:51:15Z</time>
      </trkpt>
      <trkpt lat="44.7683" lon="5.03667">
        <ele>203.46</ele>
        <time>2022-07-10T05:51:21Z</time>
      </trkpt>
      <trkpt lat="44.76832" lon="5.03678">
        <ele>204.9</ele>
        <time>2022-07-10T05:51:28Z</time>
      </trkpt>
      <trkpt lat="44.76834" lon="5.03685">
        <ele>206.34</ele>
        <time>2022-07-10T05:51:33Z</time>
      </trkpt>
      <trkpt lat="44.76835" lon="5.03689">
        <ele>207.3</ele>
        <time>2022-07-10T05:51:36Z</time>
      </trkpt>
      <trkpt lat="44.76837" lon="5.03694">
        <ele>207.3</ele>
        <time>2022-07-10T05:51:40Z</time>
      </trkpt>
      <trkpt lat="44.7684" lon="5.03714">
        <ele>205.86</ele>
        <time>2022-07-10T05:51:51Z</time>
      </trkpt>
      <trkpt lat="44.76841" lon="5.03716">
        <ele>211.15</ele>
        <time>2022-07-10T05:51:52Z</time>
      </trkpt>
      <trkpt lat="44.76842" lon="5.03718">
        <ele>209.22</ele>
        <time>2022-07-10T05:51:53Z</time>
      </trkpt>
      <trkpt lat="44.76844" lon="5.0373">
        <ele>210.19</ele>
        <time>2022-07-10T05:52:00Z</time>
      </trkpt>
      <trkpt lat="44.76847" lon="5.03751">
        <ele>212.11</ele>
        <time>2022-07-10T05:52:14Z</time>
      </trkpt>
      <trkpt lat="44.76846" lon="5.03763">
        <ele>212.11</ele>
        <time>2022-07-10T05:52:20Z</time>
      </trkpt>
      <trkpt lat="44.76845" lon="5.03784">
        <ele>213.55</ele>
        <time>2022-07-10T05:52:36Z</time>
      </trkpt>
      <trkpt lat="44.76844" lon="5.03792">
        <ele>213.55</ele>
        <time>2022-07-10T05:52:40Z</time>
      </trkpt>
      <trkpt lat="44.76841" lon="5.03803">
        <ele>214.51</ele>
        <time>2022-07-10T05:52:47Z</time>
      </trkpt>
      <trkpt lat="44.76839" lon="5.03818">
        <ele>214.99</ele>
        <time>2022-07-10T05:53:04Z</time>
      </trkpt>
      <trkpt lat="44.76839" lon="5.03819">
        <ele>214.51</ele>
        <time>2022-07-10T05:53:05Z</time>
      </trkpt>
      <trkpt lat="44.76838" lon="5.03828">
        <ele>214.99</ele>
        <time>2022-07-10T05:53:10Z</time>
      </trkpt>
      <trkpt lat="44.76834" lon="5.03842">
        <ele>216.91</ele>
        <time>2022-07-10T05:53:18Z</time>
      </trkpt>
      <trkpt lat="44.7683" lon="5.03854">
        <ele>217.4</ele>
        <time>2022-07-10T05:53:26Z</time>
      </trkpt>
      <trkpt lat="44.76825" lon="5.03874">
        <ele>219.8</ele>
        <time>2022-07-10T05:53:37Z</time>
      </trkpt>
      <trkpt lat="44.76824" lon="5.03877">
        <ele>220.76</ele>
        <time>2022-07-10T05:53:39Z</time>
      </trkpt>
      <trkpt lat="44.76817" lon="5.0389">
        <ele>222.68</ele>
        <time>2022-07-10T05:53:49Z</time>
      </trkpt>
      <trkpt lat="44.76801" lon="5.03909">
        <ele>224.61</ele>
        <time>2022-07-10T05:54:03Z</time>
      </trkpt>
      <trkpt lat="44.76798" lon="5.03911">
        <ele>225.57</ele>
        <time>2022-07-10T05:54:05Z</time>
      </trkpt>
      <trkpt lat="44.76794" lon="5.03916">
        <ele>226.05</ele>
        <time>2022-07-10T05:54:10Z</time>
      </trkpt>
      <trkpt lat="44.76788" lon="5.03937">
        <ele>227.01</ele>
        <time>2022-07-10T05:54:25Z</time>
      </trkpt>
      <trkpt lat="44.76787" lon="5.03952">
        <ele>229.41</ele>
        <time>2022-07-10T05:54:36Z</time>
      </trkpt>
      <trkpt lat="44.76787" lon="5.03959">
        <ele>229.89</ele>
        <time>2022-07-10T05:54:42Z</time>
      </trkpt>
      <trkpt lat="44.76784" lon="5.03975">
        <ele>232.78</ele>
        <time>2022-07-10T05:54:53Z</time>
      </trkpt>
      <trkpt lat="44.76783" lon="5.0398">
        <ele>233.26</ele>
        <time>2022-07-10T05:54:57Z</time>
      </trkpt>
      <trkpt lat="44.76781" lon="5.03988">
        <ele>234.22</ele>
        <time>2022-07-10T05:55:02Z</time>
      </trkpt>
      <trkpt lat="44.76774" lon="5.04002">
        <ele>237.1</ele>
        <time>2022-07-10T05:55:14Z</time>
      </trkpt>
      <trkpt lat="44.76759" lon="5.04014">
        <ele>240.47</ele>
        <time>2022-07-10T05:55:31Z</time>
      </trkpt>
      <trkpt lat="44.76757" lon="5.04014">
        <ele>240.47</ele>
        <time>2022-07-10T05:55:33Z</time>
      </trkpt>
      <trkpt lat="44.76752" lon="5.04014">
        <ele>241.43</ele>
        <time>2022-07-10T05:55:38Z</time>
      </trkpt>
      <trkpt lat="44.76741" lon="5.04016">
        <ele>243.83</ele>
        <time>2022-07-10T05:55:52Z</time>
      </trkpt>
      <trkpt lat="44.76733" lon="5.04019">
        <ele>244.79</ele>
        <time>2022-07-10T05:56:05Z</time>
      </trkpt>
      <trkpt lat="44.76728" lon="5.0403">
        <ele>244.31</ele>
        <time>2022-07-10T05:56:12Z</time>
      </trkpt>
      <trkpt lat="44.76728" lon="5.04034">
        <ele>243.83</ele>
        <time>2022-07-10T05:56:14Z</time>
      </trkpt>
      <trkpt lat="44.76727" lon="5.04057">
        <ele>242.39</ele>
        <time>2022-07-10T05:56:28Z</time>
      </trkpt>
      <trkpt lat="44.76728" lon="5.04059">
        <ele>242.39</ele>
        <time>2022-07-10T05:56:30Z</time>
      </trkpt>
      <trkpt lat="44.76728" lon="5.04061">
        <ele>242.39</ele>
        <time>2022-07-10T05:56:31Z</time>
      </trkpt>
      <trkpt lat="44.76727" lon="5.04073">
        <ele>241.91</ele>
        <time>2022-07-10T05:56:39Z</time>
      </trkpt>
      <trkpt lat="44.76727" lon="5.04086">
        <ele>242.39</ele>
        <time>2022-07-10T05:56:48Z</time>
      </trkpt>
      <trkpt lat="44.76726" lon="5.04091">
        <ele>243.35</ele>
        <time>2022-07-10T05:56:52Z</time>
      </trkpt>
      <trkpt lat="44.76719" lon="5.04101">
        <ele>244.31</ele>
        <time>2022-07-10T05:56:59Z</time>
      </trkpt>
      <trkpt lat="44.76716" lon="5.0411">
        <ele>245.27</ele>
        <time>2022-07-10T05:57:04Z</time>
      </trkpt>
      <trkpt lat="44.76715" lon="5.04119">
        <ele>246.23</ele>
        <time>2022-07-10T05:57:09Z</time>
      </trkpt>
      <trkpt lat="44.76719" lon="5.04138">
        <ele>246.72</ele>
        <time>2022-07-10T05:57:21Z</time>
      </trkpt>
      <trkpt lat="44.76723" lon="5.04159">
        <ele>246.72</ele>
        <time>2022-07-10T05:57:35Z</time>
      </trkpt>
      <trkpt lat="44.7672" lon="5.0417">
        <ele>247.68</ele>
        <time>2022-07-10T05:57:44Z</time>
      </trkpt>
      <trkpt lat="44.76712" lon="5.04181">
        <ele>248.16</ele>
        <time>2022-07-10T05:57:55Z</time>
      </trkpt>
      <trkpt lat="44.7671" lon="5.04185">
        <ele>248.16</ele>
        <time>2022-07-10T05:58:03Z</time>
      </trkpt>
      <trkpt lat="44.76709" lon="5.04197">
        <ele>247.68</ele>
        <time>2022-07-10T05:58:10Z</time>
      </trkpt>
      <trkpt lat="44.76709" lon="5.04201">
        <ele>247.68</ele>
        <time>2022-07-10T05:58:12Z</time>
      </trkpt>
      <trkpt lat="44.76709" lon="5.04225">
        <ele>247.2</ele>
        <time>2022-07-10T05:58:26Z</time>
      </trkpt>
      <trkpt lat="44.76705" lon="5.04227">
        <ele>247.68</ele>
        <time>2022-07-10T05:58:51Z</time>
      </trkpt>
      <trkpt lat="44.76705" lon="5.04226">
        <ele>248.64</ele>
        <time>2022-07-10T05:59:22Z</time>
      </trkpt>
      <trkpt lat="44.76704" lon="5.04243">
        <ele>249.12</ele>
        <time>2022-07-10T05:59:42Z</time>
      </trkpt>
      <trkpt lat="44.76704" lon="5.04244">
        <ele>250.08</ele>
        <time>2022-07-10T06:00:08Z</time>
      </trkpt>
      <trkpt lat="44.76704" lon="5.04244">
        <ele>250.56</ele>
        <time>2022-07-10T06:00:31Z</time>
      </trkpt>
      <trkpt lat="44.76704" lon="5.04248">
        <ele>251.52</ele>
        <time>2022-07-10T06:00:55Z</time>
      </trkpt>
      <trkpt lat="44.76698" lon="5.04255">
        <ele>251.52</ele>
        <time>2022-07-10T06:01:03Z</time>
      </trkpt>
      <trkpt lat="44.76682" lon="5.04271">
        <ele>252.48</ele>
        <time>2022-07-10T06:01:21Z</time>
      </trkpt>
      <trkpt lat="44.7668" lon="5.04273">
        <ele>252.96</ele>
        <time>2022-07-10T06:01:23Z</time>
      </trkpt>
      <trkpt lat="44.76674" lon="5.04277">
        <ele>252.96</ele>
        <time>2022-07-10T06:01:26Z</time>
      </trkpt>
      <trkpt lat="44.76669" lon="5.04286">
        <ele>253.44</ele>
        <time>2022-07-10T06:01:34Z</time>
      </trkpt>
      <trkpt lat="44.76658" lon="5.04296">
        <ele>254.41</ele>
        <time>2022-07-10T06:01:48Z</time>
      </trkpt>
      <trkpt lat="44.76656" lon="5.04299">
        <ele>254.89</ele>
        <time>2022-07-10T06:01:50Z</time>
      </trkpt>
      <trkpt lat="44.76642" lon="5.04319">
        <ele>256.81</ele>
        <time>2022-07-10T06:02:03Z</time>
      </trkpt>
      <trkpt lat="44.7664" lon="5.04321">
        <ele>256.33</ele>
        <time>2022-07-10T06:02:04Z</time>
      </trkpt>
      <trkpt lat="44.76638" lon="5.04326">
        <ele>256.81</ele>
        <time>2022-07-10T06:02:07Z</time>
      </trkpt>
      <trkpt lat="44.76625" lon="5.04339">
        <ele>258.73</ele>
        <time>2022-07-10T06:02:24Z</time>
      </trkpt>
      <trkpt lat="44.76621" lon="5.0434">
        <ele>259.69</ele>
        <time>2022-07-10T06:02:27Z</time>
      </trkpt>
      <trkpt lat="44.76604" lon="5.04349">
        <ele>263.06</ele>
        <time>2022-07-10T06:02:42Z</time>
      </trkpt>
      <trkpt lat="44.76596" lon="5.04359">
        <ele>264.98</ele>
        <time>2022-07-10T06:02:55Z</time>
      </trkpt>
      <trkpt lat="44.76591" lon="5.04366">
        <ele>265.46</ele>
        <time>2022-07-10T06:03:15Z</time>
      </trkpt>
      <trkpt lat="44.76581" lon="5.04385">
        <ele>264.5</ele>
        <time>2022-07-10T06:03:30Z</time>
      </trkpt>
      <trkpt lat="44.76572" lon="5.04399">
        <ele>265.94</ele>
        <time>2022-07-10T06:03:43Z</time>
      </trkpt>
      <trkpt lat="44.76562" lon="5.0441">
        <ele>266.9</ele>
        <time>2022-07-10T06:03:58Z</time>
      </trkpt>
      <trkpt lat="44.7656" lon="5.04414">
        <ele>266.9</ele>
        <time>2022-07-10T06:04:00Z</time>
      </trkpt>
      <trkpt lat="44.76554" lon="5.04429">
        <ele>265.94</ele>
        <time>2022-07-10T06:04:16Z</time>
      </trkpt>
      <trkpt lat="44.76544" lon="5.04434">
        <ele>265.94</ele>
        <time>2022-07-10T06:04:38Z</time>
      </trkpt>
      <trkpt lat="44.76539" lon="5.04435">
        <ele>266.42</ele>
        <time>2022-07-10T06:04:59Z</time>
      </trkpt>
      <trkpt lat="44.76535" lon="5.04436">
        <ele>265.94</ele>
        <time>2022-07-10T06:05:15Z</time>
      </trkpt>
      <trkpt lat="44.76531" lon="5.04436">
        <ele>266.9</ele>
        <time>2022-07-10T06:05:38Z</time>
      </trkpt>
      <trkpt lat="44.76531" lon="5.04437">
        <ele>266.42</ele>
        <time>2022-07-10T06:06:06Z</time>
      </trkpt>
      <trkpt lat="44.76531" lon="5.04437">
        <ele>266.42</ele>
        <time>2022-07-10T06:06:37Z</time>
      </trkpt>
      <trkpt lat="44.76529" lon="5.04436">
        <ele>266.42</ele>
        <time>2022-07-10T06:07:08Z</time>
      </trkpt>
      <trkpt lat="44.76529" lon="5.04438">
        <ele>266.42</ele>
        <time>2022-07-10T06:07:33Z</time>
      </trkpt>
      <trkpt lat="44.7653" lon="5.04439">
        <ele>266.42</ele>
        <time>2022-07-10T06:07:34Z</time>
      </trkpt>
      <trkpt lat="44.76533" lon="5.04447">
        <ele>266.42</ele>
        <time>2022-07-10T06:07:47Z</time>
      </trkpt>
      <trkpt lat="44.76526" lon="5.04442">
        <ele>267.38</ele>
        <time>2022-07-10T06:08:08Z</time>
      </trkpt>
      <trkpt lat="44.76519" lon="5.04439">
        <ele>266.9</ele>
        <time>2022-07-10T06:08:14Z</time>
      </trkpt>
      <trkpt lat="44.76503" lon="5.04443">
        <ele>267.38</ele>
        <time>2022-07-10T06:08:30Z</time>
      </trkpt>
      <trkpt lat="44.76503" lon="5.04443">
        <ele>267.38</ele>
        <time>2022-07-10T06:08:54Z</time>
      </trkpt>
      <trkpt lat="44.76496" lon="5.04448">
        <ele>267.86</ele>
        <time>2022-07-10T06:09:08Z</time>
      </trkpt>
      <trkpt lat="44.76488" lon="5.04449">
        <ele>268.35</ele>
        <time>2022-07-10T06:09:14Z</time>
      </trkpt>
      <trkpt lat="44.76469" lon="5.04455">
        <ele>269.31</ele>
        <time>2022-07-10T06:09:31Z</time>
      </trkpt>
      <trkpt lat="44.76469" lon="5.04456">
        <ele>269.79</ele>
        <time>2022-07-10T06:09:32Z</time>
      </trkpt>
      <trkpt lat="44.76455" lon="5.0447">
        <ele>268.83</ele>
        <time>2022-07-10T06:09:46Z</time>
      </trkpt>
      <trkpt lat="44.76444" lon="5.0447">
        <ele>266.42</ele>
        <time>2022-07-10T06:09:55Z</time>
      </trkpt>
      <trkpt lat="44.76434" lon="5.04474">
        <ele>265.46</ele>
        <time>2022-07-10T06:10:10Z</time>
      </trkpt>
      <trkpt lat="44.76431" lon="5.04475">
        <ele>267.38</ele>
        <time>2022-07-10T06:10:13Z</time>
      </trkpt>
      <trkpt lat="44.76417" lon="5.04475">
        <ele>264.5</ele>
        <time>2022-07-10T06:10:26Z</time>
      </trkpt>
      <trkpt lat="44.764" lon="5.04478">
        <ele>265.46</ele>
        <time>2022-07-10T06:10:41Z</time>
      </trkpt>
      <trkpt lat="44.76382" lon="5.04474">
        <ele>266.9</ele>
        <time>2022-07-10T06:10:58Z</time>
      </trkpt>
      <trkpt lat="44.76377" lon="5.04476">
        <ele>266.42</ele>
        <time>2022-07-10T06:11:20Z</time>
      </trkpt>
      <trkpt lat="44.76352" lon="5.0447">
        <ele>266.9</ele>
        <time>2022-07-10T06:11:38Z</time>
      </trkpt>
      <trkpt lat="44.76336" lon="5.04473">
        <ele>267.86</ele>
        <time>2022-07-10T06:11:52Z</time>
      </trkpt>
      <trkpt lat="44.76331" lon="5.04473">
        <ele>270.75</ele>
        <time>2022-07-10T06:12:04Z</time>
      </trkpt>
      <trkpt lat="44.76331" lon="5.04473">
        <ele>270.27</ele>
        <time>2022-07-10T06:12:28Z</time>
      </trkpt>
      <trkpt lat="44.76315" lon="5.04471">
        <ele>271.71</ele>
        <time>2022-07-10T06:12:42Z</time>
      </trkpt>
      <trkpt lat="44.76303" lon="5.04472">
        <ele>271.23</ele>
        <time>2022-07-10T06:12:52Z</time>
      </trkpt>
      <trkpt lat="44.76287" lon="5.04484">
        <ele>272.67</ele>
        <time>2022-07-10T06:13:06Z</time>
      </trkpt>
      <trkpt lat="44.76283" lon="5.04491">
        <ele>273.15</ele>
        <time>2022-07-10T06:13:15Z</time>
      </trkpt>
      <trkpt lat="44.7627" lon="5.04495">
        <ele>275.07</ele>
        <time>2022-07-10T06:13:26Z</time>
      </trkpt>
      <trkpt lat="44.76251" lon="5.04497">
        <ele>277.48</ele>
        <time>2022-07-10T06:13:39Z</time>
      </trkpt>
      <trkpt lat="44.76239" lon="5.04498">
        <ele>278.44</ele>
        <time>2022-07-10T06:13:47Z</time>
      </trkpt>
      <trkpt lat="44.7622" lon="5.0449">
        <ele>281.32</ele>
        <time>2022-07-10T06:14:01Z</time>
      </trkpt>
      <trkpt lat="44.76216" lon="5.04486">
        <ele>281.8</ele>
        <time>2022-07-10T06:14:05Z</time>
      </trkpt>
      <trkpt lat="44.762" lon="5.04479">
        <ele>283.73</ele>
        <time>2022-07-10T06:14:18Z</time>
      </trkpt>
      <trkpt lat="44.76193" lon="5.04483">
        <ele>284.21</ele>
        <time>2022-07-10T06:14:25Z</time>
      </trkpt>
      <trkpt lat="44.76182" lon="5.04485">
        <ele>283.73</ele>
        <time>2022-07-10T06:14:36Z</time>
      </trkpt>
      <trkpt lat="44.76172" lon="5.04481">
        <ele>285.65</ele>
        <time>2022-07-10T06:14:50Z</time>
      </trkpt>
      <trkpt lat="44.76171" lon="5.0448">
        <ele>285.65</ele>
        <time>2022-07-10T06:14:51Z</time>
      </trkpt>
      <trkpt lat="44.76165" lon="5.04473">
        <ele>286.61</ele>
        <time>2022-07-10T06:14:57Z</time>
      </trkpt>
      <trkpt lat="44.76153" lon="5.04464">
        <ele>289.97</ele>
        <time>2022-07-10T06:15:09Z</time>
      </trkpt>
      <trkpt lat="44.76142" lon="5.04454">
        <ele>292.38</ele>
        <time>2022-07-10T06:15:26Z</time>
      </trkpt>
      <trkpt lat="44.76132" lon="5.0445">
        <ele>295.26</ele>
        <time>2022-07-10T06:15:37Z</time>
      </trkpt>
      <trkpt lat="44.76121" lon="5.04442">
        <ele>296.22</ele>
        <time>2022-07-10T06:15:49Z</time>
      </trkpt>
      <trkpt lat="44.76116" lon="5.04436">
        <ele>299.11</ele>
        <time>2022-07-10T06:15:59Z</time>
      </trkpt>
      <trkpt lat="44.76106" lon="5.04422">
        <ele>301.03</ele>
        <time>2022-07-10T06:16:13Z</time>
      </trkpt>
      <trkpt lat="44.76101" lon="5.04403">
        <ele>304.39</ele>
        <time>2022-07-10T06:16:29Z</time>
      </trkpt>
      <trkpt lat="44.76094" lon="5.04384">
        <ele>305.36</ele>
        <time>2022-07-10T06:16:44Z</time>
      </trkpt>
      <trkpt lat="44.76093" lon="5.04383">
        <ele>304.88</ele>
        <time>2022-07-10T06:16:45Z</time>
      </trkpt>
      <trkpt lat="44.76075" lon="5.04364">
        <ele>307.76</ele>
        <time>2022-07-10T06:17:03Z</time>
      </trkpt>
      <trkpt lat="44.76062" lon="5.04355">
        <ele>309.2</ele>
        <time>2022-07-10T06:17:15Z</time>
      </trkpt>
      <trkpt lat="44.76045" lon="5.04347">
        <ele>311.6</ele>
        <time>2022-07-10T06:17:29Z</time>
      </trkpt>
      <trkpt lat="44.76041" lon="5.04342">
        <ele>313.53</ele>
        <time>2022-07-10T06:17:45Z</time>
      </trkpt>
      <trkpt lat="44.76037" lon="5.0434">
        <ele>315.93</ele>
        <time>2022-07-10T06:18:07Z</time>
      </trkpt>
      <trkpt lat="44.76037" lon="5.0434">
        <ele>312.57</ele>
        <time>2022-07-10T06:18:08Z</time>
      </trkpt>
      <trkpt lat="44.76037" lon="5.0434">
        <ele>316.41</ele>
        <time>2022-07-10T06:18:09Z</time>
      </trkpt>
      <trkpt lat="44.76037" lon="5.0434">
        <ele>313.53</ele>
        <time>2022-07-10T06:18:17Z</time>
      </trkpt>
      <trkpt lat="44.76037" lon="5.0434">
        <ele>316.89</ele>
        <time>2022-07-10T06:18:18Z</time>
      </trkpt>
      <trkpt lat="44.76033" lon="5.04334">
        <ele>315.93</ele>
        <time>2022-07-10T06:18:37Z</time>
      </trkpt>
      <trkpt lat="44.76019" lon="5.04324">
        <ele>318.33</ele>
        <time>2022-07-10T06:18:52Z</time>
      </trkpt>
      <trkpt lat="44.76013" lon="5.04318">
        <ele>319.3</ele>
        <time>2022-07-10T06:19:00Z</time>
      </trkpt>
      <trkpt lat="44.75999" lon="5.04303">
        <ele>320.26</ele>
        <time>2022-07-10T06:19:19Z</time>
      </trkpt>
      <trkpt lat="44.75995" lon="5.04299">
        <ele>320.74</ele>
        <time>2022-07-10T06:19:41Z</time>
      </trkpt>
      <trkpt lat="44.7599" lon="5.04296">
        <ele>321.22</ele>
        <time>2022-07-10T06:19:52Z</time>
      </trkpt>
      <trkpt lat="44.7598" lon="5.04291">
        <ele>323.62</ele>
        <time>2022-07-10T06:20:04Z</time>
      </trkpt>
      <trkpt lat="44.75963" lon="5.04288">
        <ele>323.14</ele>
        <time>2022-07-10T06:20:19Z</time>
      </trkpt>
      <trkpt lat="44.75962" lon="5.04288">
        <ele>323.14</ele>
        <time>2022-07-10T06:20:20Z</time>
      </trkpt>
      <trkpt lat="44.75941" lon="5.04279">
        <ele>324.58</ele>
        <time>2022-07-10T06:20:35Z</time>
      </trkpt>
      <trkpt lat="44.75931" lon="5.04276">
        <ele>324.1</ele>
        <time>2022-07-10T06:20:43Z</time>
      </trkpt>
      <trkpt lat="44.75916" lon="5.04274">
        <ele>325.54</ele>
        <time>2022-07-10T06:20:55Z</time>
      </trkpt>
      <trkpt lat="44.75899" lon="5.0427">
        <ele>326.99</ele>
        <time>2022-07-10T06:21:10Z</time>
      </trkpt>
      <trkpt lat="44.75883" lon="5.04269">
        <ele>329.39</ele>
        <time>2022-07-10T06:21:25Z</time>
      </trkpt>
      <trkpt lat="44.75882" lon="5.04269">
        <ele>328.91</ele>
        <time>2022-07-10T06:21:26Z</time>
      </trkpt>
      <trkpt lat="44.75861" lon="5.04265">
        <ele>330.83</ele>
        <time>2022-07-10T06:21:42Z</time>
      </trkpt>
      <trkpt lat="44.75859" lon="5.04265">
        <ele>331.31</ele>
        <time>2022-07-10T06:21:43Z</time>
      </trkpt>
      <trkpt lat="44.75855" lon="5.04265">
        <ele>332.75</ele>
        <time>2022-07-10T06:21:46Z</time>
      </trkpt>
      <trkpt lat="44.75842" lon="5.0426">
        <ele>332.75</ele>
        <time>2022-07-10T06:22:02Z</time>
      </trkpt>
      <trkpt lat="44.75842" lon="5.04257">
        <ele>332.27</ele>
        <time>2022-07-10T06:22:20Z</time>
      </trkpt>
      <trkpt lat="44.75844" lon="5.04255">
        <ele>332.27</ele>
        <time>2022-07-10T06:22:25Z</time>
      </trkpt>
      <trkpt lat="44.75842" lon="5.04238">
        <ele>335.16</ele>
        <time>2022-07-10T06:22:38Z</time>
      </trkpt>
      <trkpt lat="44.75839" lon="5.04219">
        <ele>338.52</ele>
        <time>2022-07-10T06:22:51Z</time>
      </trkpt>
      <trkpt lat="44.75832" lon="5.0421">
        <ele>339</ele>
        <time>2022-07-10T06:23:00Z</time>
      </trkpt>
      <trkpt lat="44.75825" lon="5.04208">
        <ele>341.41</ele>
        <time>2022-07-10T06:23:05Z</time>
      </trkpt>
      <trkpt lat="44.75806" lon="5.04196">
        <ele>341.41</ele>
        <time>2022-07-10T06:23:22Z</time>
      </trkpt>
      <trkpt lat="44.75806" lon="5.04196">
        <ele>340.44</ele>
        <time>2022-07-10T06:23:43Z</time>
      </trkpt>
      <trkpt lat="44.75806" lon="5.04195">
        <ele>342.37</ele>
        <time>2022-07-10T06:23:44Z</time>
      </trkpt>
      <trkpt lat="44.75806" lon="5.04195">
        <ele>341.41</ele>
        <time>2022-07-10T06:23:46Z</time>
      </trkpt>
      <trkpt lat="44.75804" lon="5.04191">
        <ele>341.89</ele>
        <time>2022-07-10T06:23:49Z</time>
      </trkpt>
      <trkpt lat="44.75796" lon="5.04177">
        <ele>342.37</ele>
        <time>2022-07-10T06:23:56Z</time>
      </trkpt>
      <trkpt lat="44.75793" lon="5.04168">
        <ele>342.37</ele>
        <time>2022-07-10T06:24:03Z</time>
      </trkpt>
      <trkpt lat="44.75789" lon="5.04154">
        <ele>342.85</ele>
        <time>2022-07-10T06:24:13Z</time>
      </trkpt>
      <trkpt lat="44.75787" lon="5.04152">
        <ele>343.33</ele>
        <time>2022-07-10T06:24:16Z</time>
      </trkpt>
      <trkpt lat="44.75784" lon="5.04151">
        <ele>342.85</ele>
        <time>2022-07-10T06:24:31Z</time>
      </trkpt>
      <trkpt lat="44.75782" lon="5.04152">
        <ele>343.33</ele>
        <time>2022-07-10T06:24:52Z</time>
      </trkpt>
      <trkpt lat="44.75782" lon="5.04151">
        <ele>343.33</ele>
        <time>2022-07-10T06:25:14Z</time>
      </trkpt>
      <trkpt lat="44.75782" lon="5.04152">
        <ele>344.29</ele>
        <time>2022-07-10T06:25:46Z</time>
      </trkpt>
      <trkpt lat="44.75781" lon="5.04151">
        <ele>344.29</ele>
        <time>2022-07-10T06:26:13Z</time>
      </trkpt>
      <trkpt lat="44.75776" lon="5.04149">
        <ele>344.77</ele>
        <time>2022-07-10T06:26:30Z</time>
      </trkpt>
      <trkpt lat="44.75772" lon="5.0415">
        <ele>344.29</ele>
        <time>2022-07-10T06:26:45Z</time>
      </trkpt>
      <trkpt lat="44.75772" lon="5.04149">
        <ele>344.77</ele>
        <time>2022-07-10T06:27:09Z</time>
      </trkpt>
      <trkpt lat="44.75769" lon="5.0415">
        <ele>345.25</ele>
        <time>2022-07-10T06:27:25Z</time>
      </trkpt>
      <trkpt lat="44.75769" lon="5.0415">
        <ele>345.73</ele>
        <time>2022-07-10T06:27:26Z</time>
      </trkpt>
      <trkpt lat="44.75762" lon="5.04147">
        <ele>344.77</ele>
        <time>2022-07-10T06:27:34Z</time>
      </trkpt>
      <trkpt lat="44.75756" lon="5.04145">
        <ele>344.77</ele>
        <time>2022-07-10T06:27:42Z</time>
      </trkpt>
      <trkpt lat="44.75737" lon="5.04137">
        <ele>343.33</ele>
        <time>2022-07-10T06:27:57Z</time>
      </trkpt>
      <trkpt lat="44.75717" lon="5.04131">
        <ele>343.33</ele>
        <time>2022-07-10T06:28:11Z</time>
      </trkpt>
      <trkpt lat="44.75716" lon="5.0413">
        <ele>342.85</ele>
        <time>2022-07-10T06:28:13Z</time>
      </trkpt>
      <trkpt lat="44.75709" lon="5.04126">
        <ele>342.37</ele>
        <time>2022-07-10T06:28:18Z</time>
      </trkpt>
      <trkpt lat="44.75687" lon="5.04122">
        <ele>342.37</ele>
        <time>2022-07-10T06:28:33Z</time>
      </trkpt>
      <trkpt lat="44.75673" lon="5.04115">
        <ele>341.41</ele>
        <time>2022-07-10T06:28:45Z</time>
      </trkpt>
      <trkpt lat="44.75665" lon="5.04112">
        <ele>341.41</ele>
        <time>2022-07-10T06:28:52Z</time>
      </trkpt>
      <trkpt lat="44.75661" lon="5.04111">
        <ele>341.41</ele>
        <time>2022-07-10T06:28:56Z</time>
      </trkpt>
      <trkpt lat="44.75658" lon="5.04112">
        <ele>342.37</ele>
        <time>2022-07-10T06:29:15Z</time>
      </trkpt>
      <trkpt lat="44.75658" lon="5.04111">
        <ele>341.89</ele>
        <time>2022-07-10T06:29:41Z</time>
      </trkpt>
      <trkpt lat="44.75657" lon="5.04111">
        <ele>342.37</ele>
        <time>2022-07-10T06:29:48Z</time>
      </trkpt>
      <trkpt lat="44.75648" lon="5.04105">
        <ele>342.37</ele>
        <time>2022-07-10T06:29:56Z</time>
      </trkpt>
      <trkpt lat="44.75644" lon="5.04103">
        <ele>341.89</ele>
        <time>2022-07-10T06:30:10Z</time>
      </trkpt>
      <trkpt lat="44.75637" lon="5.04098">
        <ele>342.37</ele>
        <time>2022-07-10T06:30:31Z</time>
      </trkpt>
      <trkpt lat="44.75615" lon="5.0409">
        <ele>340.92</ele>
        <time>2022-07-10T06:30:45Z</time>
      </trkpt>
      <trkpt lat="44.756" lon="5.04085">
        <ele>339.96</ele>
        <time>2022-07-10T06:31:00Z</time>
      </trkpt>
      <trkpt lat="44.75594" lon="5.04083">
        <ele>339.48</ele>
        <time>2022-07-10T06:31:05Z</time>
      </trkpt>
      <trkpt lat="44.75585" lon="5.04078">
        <ele>339</ele>
        <time>2022-07-10T06:31:11Z</time>
      </trkpt>
      <trkpt lat="44.75567" lon="5.0407">
        <ele>339</ele>
        <time>2022-07-10T06:31:26Z</time>
      </trkpt>
      <trkpt lat="44.75557" lon="5.04065">
        <ele>338.04</ele>
        <time>2022-07-10T06:31:34Z</time>
      </trkpt>
      <trkpt lat="44.75537" lon="5.04056">
        <ele>337.56</ele>
        <time>2022-07-10T06:31:48Z</time>
      </trkpt>
      <trkpt lat="44.75525" lon="5.0405">
        <ele>337.56</ele>
        <time>2022-07-10T06:32:02Z</time>
      </trkpt>
      <trkpt lat="44.75507" lon="5.04045">
        <ele>336.6</ele>
        <time>2022-07-10T06:32:15Z</time>
      </trkpt>
      <trkpt lat="44.75493" lon="5.04033">
        <ele>336.12</ele>
        <time>2022-07-10T06:32:29Z</time>
      </trkpt>
      <trkpt lat="44.7548" lon="5.04027">
        <ele>336.12</ele>
        <time>2022-07-10T06:32:40Z</time>
      </trkpt>
      <trkpt lat="44.75459" lon="5.04016">
        <ele>335.64</ele>
        <time>2022-07-10T06:32:55Z</time>
      </trkpt>
      <trkpt lat="44.7545" lon="5.04013">
        <ele>335.64</ele>
        <time>2022-07-10T06:33:04Z</time>
      </trkpt>
      <trkpt lat="44.75449" lon="5.04006">
        <ele>336.12</ele>
        <time>2022-07-10T06:33:09Z</time>
      </trkpt>
      <trkpt lat="44.7545" lon="5.04002">
        <ele>337.08</ele>
        <time>2022-07-10T06:33:25Z</time>
      </trkpt>
      <trkpt lat="44.75448" lon="5.04004">
        <ele>336.6</ele>
        <time>2022-07-10T06:33:30Z</time>
      </trkpt>
      <trkpt lat="44.75448" lon="5.04004">
        <ele>337.08</ele>
        <time>2022-07-10T06:33:44Z</time>
      </trkpt>
      <trkpt lat="44.75448" lon="5.04">
        <ele>337.08</ele>
        <time>2022-07-10T06:33:46Z</time>
      </trkpt>
      <trkpt lat="44.75446" lon="5.03973">
        <ele>338.52</ele>
        <time>2022-07-10T06:34:00Z</time>
      </trkpt>
      <trkpt lat="44.75445" lon="5.03962">
        <ele>339.48</ele>
        <time>2022-07-10T06:34:06Z</time>
      </trkpt>
      <trkpt lat="44.75442" lon="5.03959">
        <ele>339.96</ele>
        <time>2022-07-10T06:34:09Z</time>
      </trkpt>
      <trkpt lat="44.75438" lon="5.03944">
        <ele>340.44</ele>
        <time>2022-07-10T06:34:18Z</time>
      </trkpt>
      <trkpt lat="44.75434" lon="5.03929">
        <ele>341.89</ele>
        <time>2022-07-10T06:34:27Z</time>
      </trkpt>
      <trkpt lat="44.75427" lon="5.03905">
        <ele>343.33</ele>
        <time>2022-07-10T06:34:41Z</time>
      </trkpt>
      <trkpt lat="44.75423" lon="5.03891">
        <ele>344.77</ele>
        <time>2022-07-10T06:34:50Z</time>
      </trkpt>
      <trkpt lat="44.75413" lon="5.03873">
        <ele>346.69</ele>
        <time>2022-07-10T06:35:04Z</time>
      </trkpt>
      <trkpt lat="44.7541" lon="5.03868">
        <ele>347.65</ele>
        <time>2022-07-10T06:35:08Z</time>
      </trkpt>
      <trkpt lat="44.75406" lon="5.03856">
        <ele>348.13</ele>
        <time>2022-07-10T06:35:15Z</time>
      </trkpt>
      <trkpt lat="44.75399" lon="5.03838">
        <ele>350.54</ele>
        <time>2022-07-10T06:35:27Z</time>
      </trkpt>
      <trkpt lat="44.7539" lon="5.03826">
        <ele>351.98</ele>
        <time>2022-07-10T06:35:39Z</time>
      </trkpt>
      <trkpt lat="44.75382" lon="5.03819">
        <ele>353.9</ele>
        <time>2022-07-10T06:35:48Z</time>
      </trkpt>
      <trkpt lat="44.7537" lon="5.03805">
        <ele>355.34</ele>
        <time>2022-07-10T06:36:00Z</time>
      </trkpt>
      <trkpt lat="44.75366" lon="5.03799">
        <ele>356.31</ele>
        <time>2022-07-10T06:36:18Z</time>
      </trkpt>
      <trkpt lat="44.75366" lon="5.03799">
        <ele>357.27</ele>
        <time>2022-07-10T06:36:37Z</time>
      </trkpt>
      <trkpt lat="44.75361" lon="5.03796">
        <ele>357.27</ele>
        <time>2022-07-10T06:36:43Z</time>
      </trkpt>
      <trkpt lat="44.75349" lon="5.03789">
        <ele>359.19</ele>
        <time>2022-07-10T06:36:55Z</time>
      </trkpt>
      <trkpt lat="44.75344" lon="5.03786">
        <ele>360.63</ele>
        <time>2022-07-10T06:36:58Z</time>
      </trkpt>
      <trkpt lat="44.75328" lon="5.03777">
        <ele>362.07</ele>
        <time>2022-07-10T06:37:10Z</time>
      </trkpt>
      <trkpt lat="44.75325" lon="5.03774">
        <ele>363.52</ele>
        <time>2022-07-10T06:37:17Z</time>
      </trkpt>
      <trkpt lat="44.75328" lon="5.03768">
        <ele>364.48</ele>
        <time>2022-07-10T06:37:33Z</time>
      </trkpt>
      <trkpt lat="44.75327" lon="5.03769">
        <ele>364</ele>
        <time>2022-07-10T06:37:43Z</time>
      </trkpt>
      <trkpt lat="44.75316" lon="5.03772">
        <ele>364.48</ele>
        <time>2022-07-10T06:37:50Z</time>
      </trkpt>
      <trkpt lat="44.75308" lon="5.03772">
        <ele>365.92</ele>
        <time>2022-07-10T06:37:57Z</time>
      </trkpt>
      <trkpt lat="44.75289" lon="5.0377">
        <ele>367.36</ele>
        <time>2022-07-10T06:38:10Z</time>
      </trkpt>
      <trkpt lat="44.75281" lon="5.03767">
        <ele>368.32</ele>
        <time>2022-07-10T06:38:15Z</time>
      </trkpt>
      <trkpt lat="44.75277" lon="5.03766">
        <ele>368.32</ele>
        <time>2022-07-10T06:38:17Z</time>
      </trkpt>
      <trkpt lat="44.75259" lon="5.03759">
        <ele>369.28</ele>
        <time>2022-07-10T06:38:31Z</time>
      </trkpt>
      <trkpt lat="44.75253" lon="5.03758">
        <ele>370.24</ele>
        <time>2022-07-10T06:38:37Z</time>
      </trkpt>
      <trkpt lat="44.75235" lon="5.03761">
        <ele>370.73</ele>
        <time>2022-07-10T06:38:50Z</time>
      </trkpt>
      <trkpt lat="44.75217" lon="5.03761">
        <ele>370.73</ele>
        <time>2022-07-10T06:39:03Z</time>
      </trkpt>
      <trkpt lat="44.75199" lon="5.03754">
        <ele>371.21</ele>
        <time>2022-07-10T06:39:16Z</time>
      </trkpt>
      <trkpt lat="44.75197" lon="5.03754">
        <ele>370.73</ele>
        <time>2022-07-10T06:39:18Z</time>
      </trkpt>
      <trkpt lat="44.7519" lon="5.0375">
        <ele>372.17</ele>
        <time>2022-07-10T06:39:22Z</time>
      </trkpt>
      <trkpt lat="44.75176" lon="5.03749">
        <ele>372.17</ele>
        <time>2022-07-10T06:39:34Z</time>
      </trkpt>
      <trkpt lat="44.75161" lon="5.03745">
        <ele>372.17</ele>
        <time>2022-07-10T06:39:45Z</time>
      </trkpt>
      <trkpt lat="44.75142" lon="5.03742">
        <ele>372.65</ele>
        <time>2022-07-10T06:39:57Z</time>
      </trkpt>
      <trkpt lat="44.75124" lon="5.03739">
        <ele>372.65</ele>
        <time>2022-07-10T06:40:10Z</time>
      </trkpt>
      <trkpt lat="44.75115" lon="5.03734">
        <ele>374.57</ele>
        <time>2022-07-10T06:40:19Z</time>
      </trkpt>
      <trkpt lat="44.75116" lon="5.03722">
        <ele>376.01</ele>
        <time>2022-07-10T06:40:34Z</time>
      </trkpt>
      <trkpt lat="44.75116" lon="5.03722">
        <ele>375.53</ele>
        <time>2022-07-10T06:40:55Z</time>
      </trkpt>
      <trkpt lat="44.75117" lon="5.03731">
        <ele>375.53</ele>
        <time>2022-07-10T06:41:01Z</time>
      </trkpt>
      <trkpt lat="44.75104" lon="5.03739">
        <ele>374.57</ele>
        <time>2022-07-10T06:41:13Z</time>
      </trkpt>
      <trkpt lat="44.75085" lon="5.03735">
        <ele>376.01</ele>
        <time>2022-07-10T06:41:25Z</time>
      </trkpt>
      <trkpt lat="44.75065" lon="5.03731">
        <ele>376.97</ele>
        <time>2022-07-10T06:41:38Z</time>
      </trkpt>
      <trkpt lat="44.75048" lon="5.03727">
        <ele>376.97</ele>
        <time>2022-07-10T06:41:52Z</time>
      </trkpt>
      <trkpt lat="44.75048" lon="5.03726">
        <ele>376.97</ele>
        <time>2022-07-10T06:41:53Z</time>
      </trkpt>
      <trkpt lat="44.75052" lon="5.03711">
        <ele>378.9</ele>
        <time>2022-07-10T06:42:08Z</time>
      </trkpt>
      <trkpt lat="44.75051" lon="5.03711">
        <ele>379.38</ele>
        <time>2022-07-10T06:42:31Z</time>
      </trkpt>
      <trkpt lat="44.75051" lon="5.03711">
        <ele>378.9</ele>
        <time>2022-07-10T06:42:57Z</time>
      </trkpt>
      <trkpt lat="44.75051" lon="5.03712">
        <ele>379.38</ele>
        <time>2022-07-10T06:43:12Z</time>
      </trkpt>
      <trkpt lat="44.75046" lon="5.03717">
        <ele>378.42</ele>
        <time>2022-07-10T06:43:17Z</time>
      </trkpt>
      <trkpt lat="44.75027" lon="5.03717">
        <ele>377.94</ele>
        <time>2022-07-10T06:43:30Z</time>
      </trkpt>
      <trkpt lat="44.7501" lon="5.03709">
        <ele>376.97</ele>
        <time>2022-07-10T06:43:43Z</time>
      </trkpt>
      <trkpt lat="44.74987" lon="5.03696">
        <ele>376.01</ele>
        <time>2022-07-10T06:43:57Z</time>
      </trkpt>
      <trkpt lat="44.74968" lon="5.03687">
        <ele>374.57</ele>
        <time>2022-07-10T06:44:12Z</time>
      </trkpt>
      <trkpt lat="44.74951" lon="5.03683">
        <ele>373.13</ele>
        <time>2022-07-10T06:44:24Z</time>
      </trkpt>
      <trkpt lat="44.74934" lon="5.03678">
        <ele>371.69</ele>
        <time>2022-07-10T06:44:37Z</time>
      </trkpt>
      <trkpt lat="44.74928" lon="5.03676">
        <ele>369.76</ele>
        <time>2022-07-10T06:44:42Z</time>
      </trkpt>
      <trkpt lat="44.74909" lon="5.03665">
        <ele>369.76</ele>
        <time>2022-07-10T06:44:56Z</time>
      </trkpt>
      <trkpt lat="44.74894" lon="5.0366">
        <ele>368.8</ele>
        <time>2022-07-10T06:45:07Z</time>
      </trkpt>
      <trkpt lat="44.74895" lon="5.0366">
        <ele>369.28</ele>
        <time>2022-07-10T06:45:09Z</time>
      </trkpt>
      <trkpt lat="44.74918" lon="5.03646">
        <ele>366.88</ele>
        <time>2022-07-10T06:45:28Z</time>
      </trkpt>
      <trkpt lat="44.74919" lon="5.03646">
        <ele>366.4</ele>
        <time>2022-07-10T06:45:33Z</time>
      </trkpt>
      <trkpt lat="44.74917" lon="5.03646">
        <ele>366.88</ele>
        <time>2022-07-10T06:45:35Z</time>
      </trkpt>
      <trkpt lat="44.74909" lon="5.03649">
        <ele>368.32</ele>
        <time>2022-07-10T06:45:42Z</time>
      </trkpt>
      <trkpt lat="44.749" lon="5.03659">
        <ele>369.28</ele>
        <time>2022-07-10T06:45:50Z</time>
      </trkpt>
      <trkpt lat="44.7488" lon="5.03658">
        <ele>368.8</ele>
        <time>2022-07-10T06:46:03Z</time>
      </trkpt>
      <trkpt lat="44.74874" lon="5.03658">
        <ele>368.32</ele>
        <time>2022-07-10T06:46:07Z</time>
      </trkpt>
      <trkpt lat="44.74865" lon="5.03655">
        <ele>368.32</ele>
        <time>2022-07-10T06:46:14Z</time>
      </trkpt>
      <trkpt lat="44.74861" lon="5.03654">
        <ele>368.32</ele>
        <time>2022-07-10T06:46:17Z</time>
      </trkpt>
      <trkpt lat="44.74852" lon="5.03649">
        <ele>368.8</ele>
        <time>2022-07-10T06:46:22Z</time>
      </trkpt>
      <trkpt lat="44.7483" lon="5.03638">
        <ele>368.8</ele>
        <time>2022-07-10T06:46:35Z</time>
      </trkpt>
      <trkpt lat="44.74821" lon="5.03638">
        <ele>369.28</ele>
        <time>2022-07-10T06:46:46Z</time>
      </trkpt>
      <trkpt lat="44.74816" lon="5.03637">
        <ele>369.28</ele>
        <time>2022-07-10T06:46:49Z</time>
      </trkpt>
      <trkpt lat="44.74793" lon="5.03632">
        <ele>370.24</ele>
        <time>2022-07-10T06:47:05Z</time>
      </trkpt>
      <trkpt lat="44.74792" lon="5.03631">
        <ele>369.76</ele>
        <time>2022-07-10T06:47:06Z</time>
      </trkpt>
      <trkpt lat="44.74767" lon="5.03617">
        <ele>370.24</ele>
        <time>2022-07-10T06:47:21Z</time>
      </trkpt>
      <trkpt lat="44.74762" lon="5.03614">
        <ele>371.69</ele>
        <time>2022-07-10T06:47:27Z</time>
      </trkpt>
      <trkpt lat="44.74745" lon="5.03604">
        <ele>372.17</ele>
        <time>2022-07-10T06:47:39Z</time>
      </trkpt>
      <trkpt lat="44.74743" lon="5.03602">
        <ele>372.65</ele>
        <time>2022-07-10T06:47:42Z</time>
      </trkpt>
      <trkpt lat="44.74738" lon="5.036">
        <ele>372.65</ele>
        <time>2022-07-10T06:47:46Z</time>
      </trkpt>
      <trkpt lat="44.74717" lon="5.03591">
        <ele>373.61</ele>
        <time>2022-07-10T06:47:58Z</time>
      </trkpt>
      <trkpt lat="44.74699" lon="5.03583">
        <ele>373.61</ele>
        <time>2022-07-10T06:48:12Z</time>
      </trkpt>
      <trkpt lat="44.7468" lon="5.03567">
        <ele>372.17</ele>
        <time>2022-07-10T06:48:29Z</time>
      </trkpt>
      <trkpt lat="44.74658" lon="5.03556">
        <ele>372.17</ele>
        <time>2022-07-10T06:48:44Z</time>
      </trkpt>
      <trkpt lat="44.74637" lon="5.03545">
        <ele>372.65</ele>
        <time>2022-07-10T06:49:00Z</time>
      </trkpt>
      <trkpt lat="44.74642" lon="5.03548">
        <ele>372.65</ele>
        <time>2022-07-10T06:49:04Z</time>
      </trkpt>
      <trkpt lat="44.74646" lon="5.03548">
        <ele>372.17</ele>
        <time>2022-07-10T06:49:07Z</time>
      </trkpt>
      <trkpt lat="44.74647" lon="5.03541">
        <ele>371.21</ele>
        <time>2022-07-10T06:49:12Z</time>
      </trkpt>
      <trkpt lat="44.74642" lon="5.03521">
        <ele>366.88</ele>
        <time>2022-07-10T06:49:26Z</time>
      </trkpt>
      <trkpt lat="44.74646" lon="5.03516">
        <ele>366.4</ele>
        <time>2022-07-10T06:49:43Z</time>
      </trkpt>
      <trkpt lat="44.74652" lon="5.03512">
        <ele>365.92</ele>
        <time>2022-07-10T06:50:00Z</time>
      </trkpt>
      <trkpt lat="44.74652" lon="5.03512">
        <ele>365.92</ele>
        <time>2022-07-10T06:50:20Z</time>
      </trkpt>
      <trkpt lat="44.74652" lon="5.03512">
        <ele>366.4</ele>
        <time>2022-07-10T06:50:49Z</time>
      </trkpt>
      <trkpt lat="44.74656" lon="5.03511">
        <ele>365.92</ele>
        <time>2022-07-10T06:50:58Z</time>
      </trkpt>
      <trkpt lat="44.7466" lon="5.03505">
        <ele>364.96</ele>
        <time>2022-07-10T06:51:03Z</time>
      </trkpt>
      <trkpt lat="44.74671" lon="5.03493">
        <ele>361.59</ele>
        <time>2022-07-10T06:51:17Z</time>
      </trkpt>
      <trkpt lat="44.74673" lon="5.03492">
        <ele>361.11</ele>
        <time>2022-07-10T06:51:18Z</time>
      </trkpt>
      <trkpt lat="44.74689" lon="5.0348">
        <ele>358.71</ele>
        <time>2022-07-10T06:51:33Z</time>
      </trkpt>
      <trkpt lat="44.74712" lon="5.03471">
        <ele>354.86</ele>
        <time>2022-07-10T06:51:49Z</time>
      </trkpt>
      <trkpt lat="44.7472" lon="5.03466">
        <ele>352.46</ele>
        <time>2022-07-10T06:52:01Z</time>
      </trkpt>
      <trkpt lat="44.74726" lon="5.03438">
        <ele>350.06</ele>
        <time>2022-07-10T06:52:17Z</time>
      </trkpt>
      <trkpt lat="44.74726" lon="5.03436">
        <ele>350.06</ele>
        <time>2022-07-10T06:52:18Z</time>
      </trkpt>
      <trkpt lat="44.74731" lon="5.03415">
        <ele>347.65</ele>
        <time>2022-07-10T06:52:32Z</time>
      </trkpt>
      <trkpt lat="44.74753" lon="5.03387">
        <ele>344.77</ele>
        <time>2022-07-10T06:52:52Z</time>
      </trkpt>
      <trkpt lat="44.74756" lon="5.03382">
        <ele>344.29</ele>
        <time>2022-07-10T06:52:56Z</time>
      </trkpt>
      <trkpt lat="44.74763" lon="5.03375">
        <ele>343.81</ele>
        <time>2022-07-10T06:53:02Z</time>
      </trkpt>
      <trkpt lat="44.74769" lon="5.03359">
        <ele>341.89</ele>
        <time>2022-07-10T06:53:11Z</time>
      </trkpt>
      <trkpt lat="44.74772" lon="5.03355">
        <ele>341.41</ele>
        <time>2022-07-10T06:53:14Z</time>
      </trkpt>
      <trkpt lat="44.74778" lon="5.03332">
        <ele>339.48</ele>
        <time>2022-07-10T06:53:29Z</time>
      </trkpt>
      <trkpt lat="44.74776" lon="5.03329">
        <ele>338.52</ele>
        <time>2022-07-10T06:53:31Z</time>
      </trkpt>
      <trkpt lat="44.74771" lon="5.03321">
        <ele>338.04</ele>
        <time>2022-07-10T06:53:47Z</time>
      </trkpt>
      <trkpt lat="44.74771" lon="5.03322">
        <ele>338.04</ele>
        <time>2022-07-10T06:53:52Z</time>
      </trkpt>
      <trkpt lat="44.74777" lon="5.03334">
        <ele>339.96</ele>
        <time>2022-07-10T06:54:03Z</time>
      </trkpt>
      <trkpt lat="44.74777" lon="5.03336">
        <ele>340.44</ele>
        <time>2022-07-10T06:54:05Z</time>
      </trkpt>
      <trkpt lat="44.74771" lon="5.03337">
        <ele>343.81</ele>
        <time>2022-07-10T06:54:15Z</time>
      </trkpt>
      <trkpt lat="44.74765" lon="5.03339">
        <ele>347.17</ele>
        <time>2022-07-10T06:54:27Z</time>
      </trkpt>
      <trkpt lat="44.74759" lon="5.0334">
        <ele>350.06</ele>
        <time>2022-07-10T06:54:41Z</time>
      </trkpt>
      <trkpt lat="44.74752" lon="5.03339">
        <ele>353.42</ele>
        <time>2022-07-10T06:54:54Z</time>
      </trkpt>
      <trkpt lat="44.74747" lon="5.03337">
        <ele>356.79</ele>
        <time>2022-07-10T06:55:08Z</time>
      </trkpt>
      <trkpt lat="44.74738" lon="5.03336">
        <ele>360.63</ele>
        <time>2022-07-10T06:55:23Z</time>
      </trkpt>
      <trkpt lat="44.74735" lon="5.0333">
        <ele>364</ele>
        <time>2022-07-10T06:55:33Z</time>
      </trkpt>
      <trkpt lat="44.74735" lon="5.03329">
        <ele>364</ele>
        <time>2022-07-10T06:55:38Z</time>
      </trkpt>
      <trkpt lat="44.74731" lon="5.03325">
        <ele>364.96</ele>
        <time>2022-07-10T06:55:51Z</time>
      </trkpt>
      <trkpt lat="44.74731" lon="5.03325">
        <ele>364.48</ele>
        <time>2022-07-10T06:56:05Z</time>
      </trkpt>
      <trkpt lat="44.74728" lon="5.03327">
        <ele>366.4</ele>
        <time>2022-07-10T06:56:10Z</time>
      </trkpt>
      <trkpt lat="44.74725" lon="5.03327">
        <ele>366.4</ele>
        <time>2022-07-10T06:56:13Z</time>
      </trkpt>
      <trkpt lat="44.74717" lon="5.03323">
        <ele>370.24</ele>
        <time>2022-07-10T06:56:26Z</time>
      </trkpt>
      <trkpt lat="44.74716" lon="5.03323">
        <ele>370.24</ele>
        <time>2022-07-10T06:56:28Z</time>
      </trkpt>
      <trkpt lat="44.74711" lon="5.03322">
        <ele>371.21</ele>
        <time>2022-07-10T06:56:32Z</time>
      </trkpt>
      <trkpt lat="44.74701" lon="5.03317">
        <ele>374.09</ele>
        <time>2022-07-10T06:56:45Z</time>
      </trkpt>
      <trkpt lat="44.74701" lon="5.03317">
        <ele>374.57</ele>
        <time>2022-07-10T06:56:46Z</time>
      </trkpt>
      <trkpt lat="44.74695" lon="5.03316">
        <ele>375.53</ele>
        <time>2022-07-10T06:56:52Z</time>
      </trkpt>
      <trkpt lat="44.74692" lon="5.03316">
        <ele>376.01</ele>
        <time>2022-07-10T06:56:56Z</time>
      </trkpt>
      <trkpt lat="44.74687" lon="5.03315">
        <ele>377.45</ele>
        <time>2022-07-10T06:57:01Z</time>
      </trkpt>
      <trkpt lat="44.74676" lon="5.03311">
        <ele>379.38</ele>
        <time>2022-07-10T06:57:15Z</time>
      </trkpt>
      <trkpt lat="44.74674" lon="5.03312">
        <ele>381.78</ele>
        <time>2022-07-10T06:57:17Z</time>
      </trkpt>
      <trkpt lat="44.74669" lon="5.03313">
        <ele>385.15</ele>
        <time>2022-07-10T06:57:27Z</time>
      </trkpt>
      <trkpt lat="44.74669" lon="5.03313">
        <ele>384.66</ele>
        <time>2022-07-10T06:57:28Z</time>
      </trkpt>
      <trkpt lat="44.74662" lon="5.0331">
        <ele>386.11</ele>
        <time>2022-07-10T06:57:40Z</time>
      </trkpt>
      <trkpt lat="44.74659" lon="5.0331">
        <ele>386.11</ele>
        <time>2022-07-10T06:57:44Z</time>
      </trkpt>
      <trkpt lat="44.74649" lon="5.03307">
        <ele>386.59</ele>
        <time>2022-07-10T06:57:54Z</time>
      </trkpt>
      <trkpt lat="44.74643" lon="5.03304">
        <ele>387.55</ele>
        <time>2022-07-10T06:57:59Z</time>
      </trkpt>
      <trkpt lat="44.74638" lon="5.03302">
        <ele>388.03</ele>
        <time>2022-07-10T06:58:03Z</time>
      </trkpt>
      <trkpt lat="44.74631" lon="5.033">
        <ele>389.47</ele>
        <time>2022-07-10T06:58:10Z</time>
      </trkpt>
      <trkpt lat="44.74621" lon="5.03294">
        <ele>390.43</ele>
        <time>2022-07-10T06:58:23Z</time>
      </trkpt>
      <trkpt lat="44.7462" lon="5.03294">
        <ele>390.43</ele>
        <time>2022-07-10T06:58:24Z</time>
      </trkpt>
      <trkpt lat="44.74615" lon="5.03291">
        <ele>391.87</ele>
        <time>2022-07-10T06:58:30Z</time>
      </trkpt>
      <trkpt lat="44.7461" lon="5.03289">
        <ele>393.32</ele>
        <time>2022-07-10T06:58:34Z</time>
      </trkpt>
      <trkpt lat="44.74605" lon="5.0329">
        <ele>393.8</ele>
        <time>2022-07-10T06:58:39Z</time>
      </trkpt>
      <trkpt lat="44.74597" lon="5.0329">
        <ele>396.2</ele>
        <time>2022-07-10T06:58:47Z</time>
      </trkpt>
      <trkpt lat="44.74591" lon="5.03288">
        <ele>399.08</ele>
        <time>2022-07-10T06:58:57Z</time>
      </trkpt>
      <trkpt lat="44.7459" lon="5.03288">
        <ele>399.57</ele>
        <time>2022-07-10T06:58:58Z</time>
      </trkpt>
      <trkpt lat="44.74589" lon="5.03289">
        <ele>399.57</ele>
        <time>2022-07-10T06:58:59Z</time>
      </trkpt>
      <trkpt lat="44.74579" lon="5.03288">
        <ele>401.97</ele>
        <time>2022-07-10T06:59:10Z</time>
      </trkpt>
      <trkpt lat="44.74579" lon="5.03288">
        <ele>401.49</ele>
        <time>2022-07-10T06:59:11Z</time>
      </trkpt>
      <trkpt lat="44.74575" lon="5.03286">
        <ele>401.01</ele>
        <time>2022-07-10T06:59:14Z</time>
      </trkpt>
      <trkpt lat="44.74573" lon="5.03283">
        <ele>402.45</ele>
        <time>2022-07-10T06:59:17Z</time>
      </trkpt>
      <trkpt lat="44.74567" lon="5.03281">
        <ele>402.93</ele>
        <time>2022-07-10T06:59:24Z</time>
      </trkpt>
      <trkpt lat="44.74564" lon="5.03281">
        <ele>406.77</ele>
        <time>2022-07-10T06:59:31Z</time>
      </trkpt>
      <trkpt lat="44.74564" lon="5.03281">
        <ele>406.29</ele>
        <time>2022-07-10T06:59:32Z</time>
      </trkpt>
      <trkpt lat="44.74565" lon="5.03281">
        <ele>403.89</ele>
        <time>2022-07-10T06:59:34Z</time>
      </trkpt>
      <trkpt lat="44.74569" lon="5.03289">
        <ele>406.29</ele>
        <time>2022-07-10T06:59:41Z</time>
      </trkpt>
      <trkpt lat="44.74572" lon="5.03292">
        <ele>406.29</ele>
        <time>2022-07-10T06:59:54Z</time>
      </trkpt>
      <trkpt lat="44.74572" lon="5.03292">
        <ele>405.81</ele>
        <time>2022-07-10T07:00:03Z</time>
      </trkpt>
      <trkpt lat="44.74572" lon="5.03292">
        <ele>406.29</ele>
        <time>2022-07-10T07:00:16Z</time>
      </trkpt>
      <trkpt lat="44.74572" lon="5.03292">
        <ele>406.29</ele>
        <time>2022-07-10T07:00:39Z</time>
      </trkpt>
      <trkpt lat="44.74572" lon="5.03292">
        <ele>406.29</ele>
        <time>2022-07-10T07:01:03Z</time>
      </trkpt>
      <trkpt lat="44.74572" lon="5.03292">
        <ele>406.29</ele>
        <time>2022-07-10T07:01:27Z</time>
      </trkpt>
      <trkpt lat="44.74572" lon="5.03292">
        <ele>405.81</ele>
        <time>2022-07-10T07:01:52Z</time>
      </trkpt>
      <trkpt lat="44.74567" lon="5.03289">
        <ele>403.89</ele>
        <time>2022-07-10T07:02:04Z</time>
      </trkpt>
      <trkpt lat="44.74566" lon="5.03288">
        <ele>404.37</ele>
        <time>2022-07-10T07:02:06Z</time>
      </trkpt>
      <trkpt lat="44.74554" lon="5.03283">
        <ele>404.85</ele>
        <time>2022-07-10T07:02:18Z</time>
      </trkpt>
      <trkpt lat="44.74545" lon="5.0328">
        <ele>407.74</ele>
        <time>2022-07-10T07:02:27Z</time>
      </trkpt>
      <trkpt lat="44.74542" lon="5.03277">
        <ele>407.26</ele>
        <time>2022-07-10T07:02:37Z</time>
      </trkpt>
      <trkpt lat="44.74539" lon="5.03276">
        <ele>406.77</ele>
        <time>2022-07-10T07:02:40Z</time>
      </trkpt>
      <trkpt lat="44.74534" lon="5.03275">
        <ele>407.74</ele>
        <time>2022-07-10T07:02:43Z</time>
      </trkpt>
      <trkpt lat="44.74528" lon="5.03268">
        <ele>408.7</ele>
        <time>2022-07-10T07:02:49Z</time>
      </trkpt>
      <trkpt lat="44.74518" lon="5.03264">
        <ele>408.7</ele>
        <time>2022-07-10T07:02:59Z</time>
      </trkpt>
      <trkpt lat="44.74512" lon="5.03261">
        <ele>408.22</ele>
        <time>2022-07-10T07:03:06Z</time>
      </trkpt>
      <trkpt lat="44.74507" lon="5.03261">
        <ele>409.66</ele>
        <time>2022-07-10T07:03:09Z</time>
      </trkpt>
      <trkpt lat="44.74501" lon="5.0326">
        <ele>409.66</ele>
        <time>2022-07-10T07:03:14Z</time>
      </trkpt>
      <trkpt lat="44.74492" lon="5.03252">
        <ele>407.26</ele>
        <time>2022-07-10T07:03:24Z</time>
      </trkpt>
      <trkpt lat="44.7449" lon="5.0325">
        <ele>407.26</ele>
        <time>2022-07-10T07:03:26Z</time>
      </trkpt>
      <trkpt lat="44.74488" lon="5.03248">
        <ele>406.77</ele>
        <time>2022-07-10T07:03:28Z</time>
      </trkpt>
      <trkpt lat="44.74484" lon="5.03243">
        <ele>405.33</ele>
        <time>2022-07-10T07:03:34Z</time>
      </trkpt>
      <trkpt lat="44.74482" lon="5.03242">
        <ele>404.85</ele>
        <time>2022-07-10T07:03:36Z</time>
      </trkpt>
      <trkpt lat="44.74472" lon="5.03241">
        <ele>404.85</ele>
        <time>2022-07-10T07:03:45Z</time>
      </trkpt>
      <trkpt lat="44.74466" lon="5.03242">
        <ele>404.85</ele>
        <time>2022-07-10T07:03:50Z</time>
      </trkpt>
      <trkpt lat="44.74464" lon="5.03241">
        <ele>403.89</ele>
        <time>2022-07-10T07:03:52Z</time>
      </trkpt>
      <trkpt lat="44.74457" lon="5.0324">
        <ele>404.85</ele>
        <time>2022-07-10T07:03:57Z</time>
      </trkpt>
      <trkpt lat="44.74449" lon="5.03228">
        <ele>404.37</ele>
        <time>2022-07-10T07:04:10Z</time>
      </trkpt>
      <trkpt lat="44.74449" lon="5.03228">
        <ele>404.37</ele>
        <time>2022-07-10T07:04:12Z</time>
      </trkpt>
      <trkpt lat="44.74443" lon="5.03227">
        <ele>405.33</ele>
        <time>2022-07-10T07:04:17Z</time>
      </trkpt>
      <trkpt lat="44.74439" lon="5.03222">
        <ele>404.85</ele>
        <time>2022-07-10T07:04:21Z</time>
      </trkpt>
      <trkpt lat="44.74426" lon="5.0322">
        <ele>405.81</ele>
        <time>2022-07-10T07:04:34Z</time>
      </trkpt>
      <trkpt lat="44.74421" lon="5.03217">
        <ele>404.85</ele>
        <time>2022-07-10T07:04:44Z</time>
      </trkpt>
      <trkpt lat="44.74409" lon="5.03213">
        <ele>403.89</ele>
        <time>2022-07-10T07:04:55Z</time>
      </trkpt>
      <trkpt lat="44.74394" lon="5.03205">
        <ele>402.93</ele>
        <time>2022-07-10T07:05:09Z</time>
      </trkpt>
      <trkpt lat="44.74389" lon="5.03202">
        <ele>402.45</ele>
        <time>2022-07-10T07:05:14Z</time>
      </trkpt>
      <trkpt lat="44.7438" lon="5.03197">
        <ele>399.57</ele>
        <time>2022-07-10T07:05:27Z</time>
      </trkpt>
      <trkpt lat="44.74375" lon="5.03192">
        <ele>398.6</ele>
        <time>2022-07-10T07:05:34Z</time>
      </trkpt>
      <trkpt lat="44.74366" lon="5.03188">
        <ele>398.12</ele>
        <time>2022-07-10T07:05:41Z</time>
      </trkpt>
      <trkpt lat="44.7435" lon="5.0318">
        <ele>398.12</ele>
        <time>2022-07-10T07:05:54Z</time>
      </trkpt>
      <trkpt lat="44.74347" lon="5.03178">
        <ele>398.12</ele>
        <time>2022-07-10T07:05:56Z</time>
      </trkpt>
      <trkpt lat="44.74337" lon="5.03172">
        <ele>398.12</ele>
        <time>2022-07-10T07:06:06Z</time>
      </trkpt>
      <trkpt lat="44.74322" lon="5.03167">
        <ele>400.05</ele>
        <time>2022-07-10T07:06:19Z</time>
      </trkpt>
      <trkpt lat="44.74317" lon="5.03163">
        <ele>399.57</ele>
        <time>2022-07-10T07:06:24Z</time>
      </trkpt>
      <trkpt lat="44.74305" lon="5.03153">
        <ele>399.57</ele>
        <time>2022-07-10T07:06:37Z</time>
      </trkpt>
      <trkpt lat="44.74302" lon="5.0315">
        <ele>399.08</ele>
        <time>2022-07-10T07:06:41Z</time>
      </trkpt>
      <trkpt lat="44.74291" lon="5.03144">
        <ele>396.68</ele>
        <time>2022-07-10T07:06:55Z</time>
      </trkpt>
      <trkpt lat="44.74286" lon="5.03142">
        <ele>396.68</ele>
        <time>2022-07-10T07:06:59Z</time>
      </trkpt>
      <trkpt lat="44.74279" lon="5.03136">
        <ele>396.2</ele>
        <time>2022-07-10T07:07:03Z</time>
      </trkpt>
      <trkpt lat="44.7427" lon="5.03138">
        <ele>396.2</ele>
        <time>2022-07-10T07:07:13Z</time>
      </trkpt>
      <trkpt lat="44.74252" lon="5.03128">
        <ele>395.24</ele>
        <time>2022-07-10T07:07:26Z</time>
      </trkpt>
      <trkpt lat="44.7424" lon="5.03124">
        <ele>394.28</ele>
        <time>2022-07-10T07:07:35Z</time>
      </trkpt>
      <trkpt lat="44.74221" lon="5.0312">
        <ele>392.84</ele>
        <time>2022-07-10T07:07:49Z</time>
      </trkpt>
      <trkpt lat="44.74212" lon="5.03118">
        <ele>391.87</ele>
        <time>2022-07-10T07:07:57Z</time>
      </trkpt>
      <trkpt lat="44.74192" lon="5.03109">
        <ele>390.91</ele>
        <time>2022-07-10T07:08:11Z</time>
      </trkpt>
      <trkpt lat="44.74185" lon="5.03108">
        <ele>391.87</ele>
        <time>2022-07-10T07:08:18Z</time>
      </trkpt>
      <trkpt lat="44.74176" lon="5.03107">
        <ele>393.8</ele>
        <time>2022-07-10T07:08:34Z</time>
      </trkpt>
      <trkpt lat="44.74176" lon="5.03107">
        <ele>392.84</ele>
        <time>2022-07-10T07:08:53Z</time>
      </trkpt>
      <trkpt lat="44.74175" lon="5.03108">
        <ele>393.32</ele>
        <time>2022-07-10T07:09:07Z</time>
      </trkpt>
      <trkpt lat="44.7417" lon="5.03105">
        <ele>393.32</ele>
        <time>2022-07-10T07:09:14Z</time>
      </trkpt>
      <trkpt lat="44.74165" lon="5.03103">
        <ele>392.36</ele>
        <time>2022-07-10T07:09:19Z</time>
      </trkpt>
      <trkpt lat="44.74154" lon="5.03099">
        <ele>389.95</ele>
        <time>2022-07-10T07:09:32Z</time>
      </trkpt>
      <trkpt lat="44.74153" lon="5.03099">
        <ele>389.95</ele>
        <time>2022-07-10T07:09:33Z</time>
      </trkpt>
      <trkpt lat="44.74148" lon="5.03094">
        <ele>388.99</ele>
        <time>2022-07-10T07:09:38Z</time>
      </trkpt>
      <trkpt lat="44.7414" lon="5.03085">
        <ele>386.59</ele>
        <time>2022-07-10T07:09:52Z</time>
      </trkpt>
      <trkpt lat="44.74128" lon="5.03084">
        <ele>383.22</ele>
        <time>2022-07-10T07:10:04Z</time>
      </trkpt>
      <trkpt lat="44.74124" lon="5.03082">
        <ele>383.22</ele>
        <time>2022-07-10T07:10:08Z</time>
      </trkpt>
      <trkpt lat="44.74113" lon="5.03072">
        <ele>383.7</ele>
        <time>2022-07-10T07:10:22Z</time>
      </trkpt>
      <trkpt lat="44.74108" lon="5.03063">
        <ele>383.22</ele>
        <time>2022-07-10T07:10:34Z</time>
      </trkpt>
      <trkpt lat="44.74093" lon="5.03063">
        <ele>383.7</ele>
        <time>2022-07-10T07:10:49Z</time>
      </trkpt>
      <trkpt lat="44.74075" lon="5.03061">
        <ele>384.66</ele>
        <time>2022-07-10T07:11:02Z</time>
      </trkpt>
      <trkpt lat="44.74061" lon="5.03056">
        <ele>385.15</ele>
        <time>2022-07-10T07:11:16Z</time>
      </trkpt>
      <trkpt lat="44.74046" lon="5.03049">
        <ele>385.63</ele>
        <time>2022-07-10T07:11:33Z</time>
      </trkpt>
      <trkpt lat="44.74018" lon="5.03041">
        <ele>385.63</ele>
        <time>2022-07-10T07:11:51Z</time>
      </trkpt>
      <trkpt lat="44.73996" lon="5.03038">
        <ele>387.07</ele>
        <time>2022-07-10T07:12:06Z</time>
      </trkpt>
      <trkpt lat="44.73984" lon="5.03036">
        <ele>388.99</ele>
        <time>2022-07-10T07:12:23Z</time>
      </trkpt>
      <trkpt lat="44.73983" lon="5.03036">
        <ele>388.99</ele>
        <time>2022-07-10T07:12:24Z</time>
      </trkpt>
      <trkpt lat="44.73978" lon="5.03037">
        <ele>389.95</ele>
        <time>2022-07-10T07:12:28Z</time>
      </trkpt>
      <trkpt lat="44.73965" lon="5.03032">
        <ele>389.47</ele>
        <time>2022-07-10T07:12:43Z</time>
      </trkpt>
      <trkpt lat="44.73963" lon="5.03031">
        <ele>389.95</ele>
        <time>2022-07-10T07:12:45Z</time>
      </trkpt>
      <trkpt lat="44.73948" lon="5.03021">
        <ele>389.47</ele>
        <time>2022-07-10T07:12:57Z</time>
      </trkpt>
      <trkpt lat="44.73945" lon="5.03019">
        <ele>391.39</ele>
        <time>2022-07-10T07:13:01Z</time>
      </trkpt>
      <trkpt lat="44.73933" lon="5.03024">
        <ele>390.91</ele>
        <time>2022-07-10T07:13:10Z</time>
      </trkpt>
      <trkpt lat="44.73914" lon="5.03016">
        <ele>392.36</ele>
        <time>2022-07-10T07:13:26Z</time>
      </trkpt>
      <trkpt lat="44.73903" lon="5.0301">
        <ele>391.39</ele>
        <time>2022-07-10T07:13:38Z</time>
      </trkpt>
      <trkpt lat="44.73901" lon="5.03009">
        <ele>390.91</ele>
        <time>2022-07-10T07:13:40Z</time>
      </trkpt>
      <trkpt lat="44.73897" lon="5.03006">
        <ele>391.87</ele>
        <time>2022-07-10T07:13:44Z</time>
      </trkpt>
      <trkpt lat="44.73893" lon="5.02999">
        <ele>390.43</ele>
        <time>2022-07-10T07:13:48Z</time>
      </trkpt>
      <trkpt lat="44.73889" lon="5.02997">
        <ele>389.95</ele>
        <time>2022-07-10T07:13:51Z</time>
      </trkpt>
      <trkpt lat="44.73883" lon="5.02999">
        <ele>388.51</ele>
        <time>2022-07-10T07:13:56Z</time>
      </trkpt>
      <trkpt lat="44.73877" lon="5.02997">
        <ele>388.51</ele>
        <time>2022-07-10T07:14:05Z</time>
      </trkpt>
      <trkpt lat="44.73873" lon="5.02993">
        <ele>388.03</ele>
        <time>2022-07-10T07:14:09Z</time>
      </trkpt>
      <trkpt lat="44.73852" lon="5.02985">
        <ele>387.07</ele>
        <time>2022-07-10T07:14:25Z</time>
      </trkpt>
      <trkpt lat="44.73844" lon="5.02978">
        <ele>387.07</ele>
        <time>2022-07-10T07:14:34Z</time>
      </trkpt>
      <trkpt lat="44.73839" lon="5.02977">
        <ele>386.59</ele>
        <time>2022-07-10T07:14:38Z</time>
      </trkpt>
      <trkpt lat="44.73824" lon="5.02976">
        <ele>386.59</ele>
        <time>2022-07-10T07:14:49Z</time>
      </trkpt>
      <trkpt lat="44.73809" lon="5.02965">
        <ele>386.11</ele>
        <time>2022-07-10T07:15:02Z</time>
      </trkpt>
      <trkpt lat="44.73809" lon="5.02964">
        <ele>385.63</ele>
        <time>2022-07-10T07:15:18Z</time>
      </trkpt>
      <trkpt lat="44.7381" lon="5.02963">
        <ele>385.63</ele>
        <time>2022-07-10T07:15:35Z</time>
      </trkpt>
      <trkpt lat="44.7381" lon="5.02963">
        <ele>386.11</ele>
        <time>2022-07-10T07:15:42Z</time>
      </trkpt>
      <trkpt lat="44.73809" lon="5.02963">
        <ele>386.11</ele>
        <time>2022-07-10T07:15:44Z</time>
      </trkpt>
      <trkpt lat="44.738" lon="5.02963">
        <ele>384.18</ele>
        <time>2022-07-10T07:15:53Z</time>
      </trkpt>
      <trkpt lat="44.73789" lon="5.02955">
        <ele>380.82</ele>
        <time>2022-07-10T07:16:03Z</time>
      </trkpt>
      <trkpt lat="44.73772" lon="5.02948">
        <ele>379.38</ele>
        <time>2022-07-10T07:16:15Z</time>
      </trkpt>
      <trkpt lat="44.73769" lon="5.02948">
        <ele>378.42</ele>
        <time>2022-07-10T07:16:18Z</time>
      </trkpt>
      <trkpt lat="44.73766" lon="5.02945">
        <ele>378.9</ele>
        <time>2022-07-10T07:16:22Z</time>
      </trkpt>
      <trkpt lat="44.73753" lon="5.02945">
        <ele>375.53</ele>
        <time>2022-07-10T07:16:34Z</time>
      </trkpt>
      <trkpt lat="44.73749" lon="5.02944">
        <ele>375.05</ele>
        <time>2022-07-10T07:16:40Z</time>
      </trkpt>
      <trkpt lat="44.73735" lon="5.02943">
        <ele>371.69</ele>
        <time>2022-07-10T07:16:54Z</time>
      </trkpt>
      <trkpt lat="44.73726" lon="5.02939">
        <ele>369.76</ele>
        <time>2022-07-10T07:17:00Z</time>
      </trkpt>
      <trkpt lat="44.73713" lon="5.02934">
        <ele>366.88</ele>
        <time>2022-07-10T07:17:14Z</time>
      </trkpt>
      <trkpt lat="44.73707" lon="5.02933">
        <ele>365.92</ele>
        <time>2022-07-10T07:17:18Z</time>
      </trkpt>
      <trkpt lat="44.73692" lon="5.02922">
        <ele>362.07</ele>
        <time>2022-07-10T07:17:34Z</time>
      </trkpt>
      <trkpt lat="44.73685" lon="5.02923">
        <ele>361.59</ele>
        <time>2022-07-10T07:17:42Z</time>
      </trkpt>
      <trkpt lat="44.73673" lon="5.0291">
        <ele>361.11</ele>
        <time>2022-07-10T07:17:57Z</time>
      </trkpt>
      <trkpt lat="44.73669" lon="5.02899">
        <ele>361.11</ele>
        <time>2022-07-10T07:18:09Z</time>
      </trkpt>
      <trkpt lat="44.73661" lon="5.0287">
        <ele>360.63</ele>
        <time>2022-07-10T07:18:25Z</time>
      </trkpt>
      <trkpt lat="44.73655" lon="5.02867">
        <ele>359.67</ele>
        <time>2022-07-10T07:18:32Z</time>
      </trkpt>
      <trkpt lat="44.7365" lon="5.02867">
        <ele>359.19</ele>
        <time>2022-07-10T07:18:36Z</time>
      </trkpt>
      <trkpt lat="44.73641" lon="5.02863">
        <ele>359.19</ele>
        <time>2022-07-10T07:18:42Z</time>
      </trkpt>
      <trkpt lat="44.73618" lon="5.02857">
        <ele>357.27</ele>
        <time>2022-07-10T07:18:56Z</time>
      </trkpt>
      <trkpt lat="44.73612" lon="5.02855">
        <ele>356.79</ele>
        <time>2022-07-10T07:19:02Z</time>
      </trkpt>
      <trkpt lat="44.736" lon="5.02849">
        <ele>354.86</ele>
        <time>2022-07-10T07:19:12Z</time>
      </trkpt>
      <trkpt lat="44.73581" lon="5.02843">
        <ele>351.98</ele>
        <time>2022-07-10T07:19:25Z</time>
      </trkpt>
      <trkpt lat="44.73578" lon="5.0284">
        <ele>351.5</ele>
        <time>2022-07-10T07:19:29Z</time>
      </trkpt>
      <trkpt lat="44.73569" lon="5.02834">
        <ele>350.54</ele>
        <time>2022-07-10T07:19:37Z</time>
      </trkpt>
      <trkpt lat="44.73561" lon="5.02829">
        <ele>348.62</ele>
        <time>2022-07-10T07:19:50Z</time>
      </trkpt>
      <trkpt lat="44.7355" lon="5.02819">
        <ele>347.65</ele>
        <time>2022-07-10T07:20:02Z</time>
      </trkpt>
      <trkpt lat="44.73532" lon="5.02806">
        <ele>347.17</ele>
        <time>2022-07-10T07:20:15Z</time>
      </trkpt>
      <trkpt lat="44.73525" lon="5.028">
        <ele>347.17</ele>
        <time>2022-07-10T07:20:19Z</time>
      </trkpt>
      <trkpt lat="44.73512" lon="5.0279">
        <ele>347.65</ele>
        <time>2022-07-10T07:20:32Z</time>
      </trkpt>
      <trkpt lat="44.7351" lon="5.02788">
        <ele>347.65</ele>
        <time>2022-07-10T07:20:34Z</time>
      </trkpt>
      <trkpt lat="44.73505" lon="5.02783">
        <ele>348.13</ele>
        <time>2022-07-10T07:20:38Z</time>
      </trkpt>
      <trkpt lat="44.73493" lon="5.02774">
        <ele>347.65</ele>
        <time>2022-07-10T07:20:49Z</time>
      </trkpt>
      <trkpt lat="44.73485" lon="5.02769">
        <ele>347.65</ele>
        <time>2022-07-10T07:20:55Z</time>
      </trkpt>
      <trkpt lat="44.73479" lon="5.0276">
        <ele>343.81</ele>
        <time>2022-07-10T07:21:00Z</time>
      </trkpt>
      <trkpt lat="44.73478" lon="5.02759">
        <ele>349.1</ele>
        <time>2022-07-10T07:21:01Z</time>
      </trkpt>
      <trkpt lat="44.73476" lon="5.02758">
        <ele>346.21</ele>
        <time>2022-07-10T07:21:03Z</time>
      </trkpt>
      <trkpt lat="44.73466" lon="5.02749">
        <ele>344.77</ele>
        <time>2022-07-10T07:21:15Z</time>
      </trkpt>
      <trkpt lat="44.73464" lon="5.02747">
        <ele>343.33</ele>
        <time>2022-07-10T07:21:18Z</time>
      </trkpt>
      <trkpt lat="44.73459" lon="5.02744">
        <ele>342.37</ele>
        <time>2022-07-10T07:21:24Z</time>
      </trkpt>
      <trkpt lat="44.73457" lon="5.02741">
        <ele>341.41</ele>
        <time>2022-07-10T07:21:27Z</time>
      </trkpt>
      <trkpt lat="44.73448" lon="5.02733">
        <ele>339.96</ele>
        <time>2022-07-10T07:21:39Z</time>
      </trkpt>
      <trkpt lat="44.73448" lon="5.02732">
        <ele>339.96</ele>
        <time>2022-07-10T07:21:40Z</time>
      </trkpt>
      <trkpt lat="44.73441" lon="5.02728">
        <ele>338.52</ele>
        <time>2022-07-10T07:21:48Z</time>
      </trkpt>
      <trkpt lat="44.73437" lon="5.02722">
        <ele>338.04</ele>
        <time>2022-07-10T07:21:54Z</time>
      </trkpt>
      <trkpt lat="44.73425" lon="5.02711">
        <ele>335.16</ele>
        <time>2022-07-10T07:22:08Z</time>
      </trkpt>
      <trkpt lat="44.73418" lon="5.02707">
        <ele>333.71</ele>
        <time>2022-07-10T07:22:14Z</time>
      </trkpt>
      <trkpt lat="44.73406" lon="5.02693">
        <ele>330.35</ele>
        <time>2022-07-10T07:22:29Z</time>
      </trkpt>
      <trkpt lat="44.73403" lon="5.02689">
        <ele>328.91</ele>
        <time>2022-07-10T07:22:34Z</time>
      </trkpt>
      <trkpt lat="44.73398" lon="5.02684">
        <ele>326.5</ele>
        <time>2022-07-10T07:22:46Z</time>
      </trkpt>
      <trkpt lat="44.73396" lon="5.02681">
        <ele>327.95</ele>
        <time>2022-07-10T07:22:48Z</time>
      </trkpt>
      <trkpt lat="44.73392" lon="5.02677">
        <ele>326.5</ele>
        <time>2022-07-10T07:22:51Z</time>
      </trkpt>
      <trkpt lat="44.73388" lon="5.02674">
        <ele>325.54</ele>
        <time>2022-07-10T07:22:55Z</time>
      </trkpt>
      <trkpt lat="44.73385" lon="5.0267">
        <ele>325.54</ele>
        <time>2022-07-10T07:22:58Z</time>
      </trkpt>
      <trkpt lat="44.73383" lon="5.02668">
        <ele>324.1</ele>
        <time>2022-07-10T07:23:00Z</time>
      </trkpt>
      <trkpt lat="44.73378" lon="5.02659">
        <ele>323.14</ele>
        <time>2022-07-10T07:23:06Z</time>
      </trkpt>
      <trkpt lat="44.73375" lon="5.02652">
        <ele>323.14</ele>
        <time>2022-07-10T07:23:11Z</time>
      </trkpt>
      <trkpt lat="44.73371" lon="5.02649">
        <ele>322.18</ele>
        <time>2022-07-10T07:23:13Z</time>
      </trkpt>
      <trkpt lat="44.73368" lon="5.02643">
        <ele>321.22</ele>
        <time>2022-07-10T07:23:16Z</time>
      </trkpt>
      <trkpt lat="44.73359" lon="5.02631">
        <ele>319.3</ele>
        <time>2022-07-10T07:23:25Z</time>
      </trkpt>
      <trkpt lat="44.73344" lon="5.0262">
        <ele>317.85</ele>
        <time>2022-07-10T07:23:36Z</time>
      </trkpt>
      <trkpt lat="44.73332" lon="5.02604">
        <ele>316.89</ele>
        <time>2022-07-10T07:23:49Z</time>
      </trkpt>
      <trkpt lat="44.73328" lon="5.02596">
        <ele>315.93</ele>
        <time>2022-07-10T07:23:57Z</time>
      </trkpt>
      <trkpt lat="44.73325" lon="5.02596">
        <ele>314.01</ele>
        <time>2022-07-10T07:24:09Z</time>
      </trkpt>
      <trkpt lat="44.73328" lon="5.02587">
        <ele>310.64</ele>
        <time>2022-07-10T07:24:21Z</time>
      </trkpt>
      <trkpt lat="44.73331" lon="5.02583">
        <ele>310.64</ele>
        <time>2022-07-10T07:24:33Z</time>
      </trkpt>
      <trkpt lat="44.73331" lon="5.02583">
        <ele>311.12</ele>
        <time>2022-07-10T07:24:38Z</time>
      </trkpt>
      <trkpt lat="44.73332" lon="5.02585">
        <ele>310.64</ele>
        <time>2022-07-10T07:24:50Z</time>
      </trkpt>
      <trkpt lat="44.73333" lon="5.02585">
        <ele>311.6</ele>
        <time>2022-07-10T07:25:13Z</time>
      </trkpt>
      <trkpt lat="44.73333" lon="5.02585">
        <ele>307.76</ele>
        <time>2022-07-10T07:25:24Z</time>
      </trkpt>
      <trkpt lat="44.73333" lon="5.02585">
        <ele>319.3</ele>
        <time>2022-07-10T07:25:26Z</time>
      </trkpt>
      <trkpt lat="44.73333" lon="5.02585">
        <ele>309.68</ele>
        <time>2022-07-10T07:25:27Z</time>
      </trkpt>
      <trkpt lat="44.73333" lon="5.02585">
        <ele>321.22</ele>
        <time>2022-07-10T07:25:28Z</time>
      </trkpt>
      <trkpt lat="44.73333" lon="5.02585">
        <ele>313.05</ele>
        <time>2022-07-10T07:25:29Z</time>
      </trkpt>
      <trkpt lat="44.73333" lon="5.02585">
        <ele>311.12</ele>
        <time>2022-07-10T07:25:31Z</time>
      </trkpt>
      <trkpt lat="44.73333" lon="5.02586">
        <ele>311.12</ele>
        <time>2022-07-10T07:25:41Z</time>
      </trkpt>
      <trkpt lat="44.73337" lon="5.0259">
        <ele>312.09</ele>
        <time>2022-07-10T07:25:45Z</time>
      </trkpt>
      <trkpt lat="44.73353" lon="5.02597">
        <ele>313.05</ele>
        <time>2022-07-10T07:26:01Z</time>
      </trkpt>
      <trkpt lat="44.73354" lon="5.02597">
        <ele>313.05</ele>
        <time>2022-07-10T07:26:08Z</time>
      </trkpt>
      <trkpt lat="44.73368" lon="5.02603">
        <ele>311.6</ele>
        <time>2022-07-10T07:26:20Z</time>
      </trkpt>
      <trkpt lat="44.73374" lon="5.02606">
        <ele>312.57</ele>
        <time>2022-07-10T07:26:26Z</time>
      </trkpt>
      <trkpt lat="44.73383" lon="5.02611">
        <ele>316.41</ele>
        <time>2022-07-10T07:26:37Z</time>
      </trkpt>
      <trkpt lat="44.73379" lon="5.02608">
        <ele>313.05</ele>
        <time>2022-07-10T07:26:41Z</time>
      </trkpt>
      <trkpt lat="44.73367" lon="5.026">
        <ele>313.05</ele>
        <time>2022-07-10T07:26:54Z</time>
      </trkpt>
      <trkpt lat="44.73346" lon="5.02593">
        <ele>312.09</ele>
        <time>2022-07-10T07:27:09Z</time>
      </trkpt>
      <trkpt lat="44.73345" lon="5.02592">
        <ele>312.09</ele>
        <time>2022-07-10T07:27:10Z</time>
      </trkpt>
      <trkpt lat="44.73341" lon="5.02589">
        <ele>311.12</ele>
        <time>2022-07-10T07:27:13Z</time>
      </trkpt>
      <trkpt lat="44.73342" lon="5.02581">
        <ele>311.12</ele>
        <time>2022-07-10T07:27:18Z</time>
      </trkpt>
      <trkpt lat="44.73356" lon="5.02583">
        <ele>310.16</ele>
        <time>2022-07-10T07:27:27Z</time>
      </trkpt>
      <trkpt lat="44.73367" lon="5.02589">
        <ele>308.24</ele>
        <time>2022-07-10T07:27:38Z</time>
      </trkpt>
      <trkpt lat="44.73372" lon="5.02589">
        <ele>308.24</ele>
        <time>2022-07-10T07:27:41Z</time>
      </trkpt>
      <trkpt lat="44.73379" lon="5.02583">
        <ele>305.36</ele>
        <time>2022-07-10T07:27:47Z</time>
      </trkpt>
      <trkpt lat="44.73381" lon="5.02579">
        <ele>304.88</ele>
        <time>2022-07-10T07:27:50Z</time>
      </trkpt>
      <trkpt lat="44.7339" lon="5.02555">
        <ele>301.51</ele>
        <time>2022-07-10T07:28:02Z</time>
      </trkpt>
      <trkpt lat="44.73394" lon="5.02537">
        <ele>299.11</ele>
        <time>2022-07-10T07:28:14Z</time>
      </trkpt>
      <trkpt lat="44.73394" lon="5.02534">
        <ele>298.63</ele>
        <time>2022-07-10T07:28:16Z</time>
      </trkpt>
      <trkpt lat="44.73401" lon="5.02503">
        <ele>296.7</ele>
        <time>2022-07-10T07:28:30Z</time>
      </trkpt>
      <trkpt lat="44.734" lon="5.02486">
        <ele>296.22</ele>
        <time>2022-07-10T07:28:39Z</time>
      </trkpt>
      <trkpt lat="44.73399" lon="5.02476">
        <ele>295.26</ele>
        <time>2022-07-10T07:28:46Z</time>
      </trkpt>
      <trkpt lat="44.73399" lon="5.02471">
        <ele>294.78</ele>
        <time>2022-07-10T07:28:49Z</time>
      </trkpt>
      <trkpt lat="44.73405" lon="5.02458">
        <ele>294.78</ele>
        <time>2022-07-10T07:28:57Z</time>
      </trkpt>
      <trkpt lat="44.73417" lon="5.02464">
        <ele>296.22</ele>
        <time>2022-07-10T07:29:06Z</time>
      </trkpt>
      <trkpt lat="44.73433" lon="5.02474">
        <ele>296.7</ele>
        <time>2022-07-10T07:29:19Z</time>
      </trkpt>
      <trkpt lat="44.73453" lon="5.02485">
        <ele>298.15</ele>
        <time>2022-07-10T07:29:34Z</time>
      </trkpt>
      <trkpt lat="44.7346" lon="5.02491">
        <ele>298.15</ele>
        <time>2022-07-10T07:29:40Z</time>
      </trkpt>
      <trkpt lat="44.7347" lon="5.02501">
        <ele>302.47</ele>
        <time>2022-07-10T07:29:52Z</time>
      </trkpt>
      <trkpt lat="44.73471" lon="5.02502">
        <ele>299.11</ele>
        <time>2022-07-10T07:29:53Z</time>
      </trkpt>
      <trkpt lat="44.73485" lon="5.02516">
        <ele>299.59</ele>
        <time>2022-07-10T07:30:06Z</time>
      </trkpt>
      <trkpt lat="44.73492" lon="5.02522">
        <ele>300.07</ele>
        <time>2022-07-10T07:30:12Z</time>
      </trkpt>
      <trkpt lat="44.73509" lon="5.02539">
        <ele>300.55</ele>
        <time>2022-07-10T07:30:26Z</time>
      </trkpt>
      <trkpt lat="44.73525" lon="5.0255">
        <ele>298.15</ele>
        <time>2022-07-10T07:30:38Z</time>
      </trkpt>
      <trkpt lat="44.73535" lon="5.02558">
        <ele>298.63</ele>
        <time>2022-07-10T07:30:46Z</time>
      </trkpt>
      <trkpt lat="44.73551" lon="5.02576">
        <ele>296.22</ele>
        <time>2022-07-10T07:31:03Z</time>
      </trkpt>
      <trkpt lat="44.73565" lon="5.02588">
        <ele>294.78</ele>
        <time>2022-07-10T07:31:15Z</time>
      </trkpt>
      <trkpt lat="44.73578" lon="5.02601">
        <ele>293.34</ele>
        <time>2022-07-10T07:31:28Z</time>
      </trkpt>
      <trkpt lat="44.73594" lon="5.02612">
        <ele>291.9</ele>
        <time>2022-07-10T07:31:42Z</time>
      </trkpt>
      <trkpt lat="44.73614" lon="5.02615">
        <ele>290.94</ele>
        <time>2022-07-10T07:31:55Z</time>
      </trkpt>
      <trkpt lat="44.73632" lon="5.02621">
        <ele>289.97</ele>
        <time>2022-07-10T07:32:10Z</time>
      </trkpt>
      <trkpt lat="44.7365" lon="5.02628">
        <ele>289.49</ele>
        <time>2022-07-10T07:32:25Z</time>
      </trkpt>
      <trkpt lat="44.73675" lon="5.02635">
        <ele>289.01</ele>
        <time>2022-07-10T07:32:41Z</time>
      </trkpt>
      <trkpt lat="44.73699" lon="5.02635">
        <ele>287.57</ele>
        <time>2022-07-10T07:33:00Z</time>
      </trkpt>
      <trkpt lat="44.73724" lon="5.02633">
        <ele>287.57</ele>
        <time>2022-07-10T07:33:18Z</time>
      </trkpt>
      <trkpt lat="44.73729" lon="5.02633">
        <ele>287.57</ele>
        <time>2022-07-10T07:33:21Z</time>
      </trkpt>
      <trkpt lat="44.73733" lon="5.02629">
        <ele>287.09</ele>
        <time>2022-07-10T07:33:38Z</time>
      </trkpt>
      <trkpt lat="44.73735" lon="5.02631">
        <ele>288.05</ele>
        <time>2022-07-10T07:33:41Z</time>
      </trkpt>
      <trkpt lat="44.73739" lon="5.02631">
        <ele>287.57</ele>
        <time>2022-07-10T07:33:44Z</time>
      </trkpt>
      <trkpt lat="44.73743" lon="5.02632">
        <ele>288.05</ele>
        <time>2022-07-10T07:33:48Z</time>
      </trkpt>
      <trkpt lat="44.73755" lon="5.02631">
        <ele>288.05</ele>
        <time>2022-07-10T07:33:57Z</time>
      </trkpt>
      <trkpt lat="44.73763" lon="5.02633">
        <ele>287.57</ele>
        <time>2022-07-10T07:34:09Z</time>
      </trkpt>
      <trkpt lat="44.73764" lon="5.02633">
        <ele>288.53</ele>
        <time>2022-07-10T07:34:13Z</time>
      </trkpt>
      <trkpt lat="44.73782" lon="5.02633">
        <ele>288.05</ele>
        <time>2022-07-10T07:34:27Z</time>
      </trkpt>
      <trkpt lat="44.73797" lon="5.02635">
        <ele>289.01</ele>
        <time>2022-07-10T07:34:40Z</time>
      </trkpt>
      <trkpt lat="44.73823" lon="5.02632">
        <ele>289.97</ele>
        <time>2022-07-10T07:34:56Z</time>
      </trkpt>
      <trkpt lat="44.73839" lon="5.0262">
        <ele>290.46</ele>
        <time>2022-07-10T07:35:09Z</time>
      </trkpt>
      <trkpt lat="44.73844" lon="5.02614">
        <ele>291.9</ele>
        <time>2022-07-10T07:35:19Z</time>
      </trkpt>
      <trkpt lat="44.73858" lon="5.026">
        <ele>293.34</ele>
        <time>2022-07-10T07:35:34Z</time>
      </trkpt>
      <trkpt lat="44.73874" lon="5.026">
        <ele>295.26</ele>
        <time>2022-07-10T07:35:49Z</time>
      </trkpt>
      <trkpt lat="44.73889" lon="5.026">
        <ele>297.18</ele>
        <time>2022-07-10T07:36:00Z</time>
      </trkpt>
      <trkpt lat="44.73905" lon="5.02605">
        <ele>298.15</ele>
        <time>2022-07-10T07:36:09Z</time>
      </trkpt>
      <trkpt lat="44.73925" lon="5.02613">
        <ele>299.11</ele>
        <time>2022-07-10T07:36:25Z</time>
      </trkpt>
      <trkpt lat="44.73929" lon="5.02613">
        <ele>299.11</ele>
        <time>2022-07-10T07:36:30Z</time>
      </trkpt>
      <trkpt lat="44.73933" lon="5.02615">
        <ele>299.59</ele>
        <time>2022-07-10T07:36:34Z</time>
      </trkpt>
      <trkpt lat="44.73936" lon="5.02616">
        <ele>300.07</ele>
        <time>2022-07-10T07:36:38Z</time>
      </trkpt>
      <trkpt lat="44.73955" lon="5.02626">
        <ele>299.59</ele>
        <time>2022-07-10T07:36:52Z</time>
      </trkpt>
      <trkpt lat="44.73958" lon="5.02628">
        <ele>300.55</ele>
        <time>2022-07-10T07:36:56Z</time>
      </trkpt>
      <trkpt lat="44.73963" lon="5.02633">
        <ele>300.07</ele>
        <time>2022-07-10T07:37:01Z</time>
      </trkpt>
      <trkpt lat="44.73979" lon="5.02644">
        <ele>299.11</ele>
        <time>2022-07-10T07:37:13Z</time>
      </trkpt>
      <trkpt lat="44.73982" lon="5.02649">
        <ele>299.59</ele>
        <time>2022-07-10T07:37:18Z</time>
      </trkpt>
      <trkpt lat="44.73989" lon="5.02653">
        <ele>299.11</ele>
        <time>2022-07-10T07:37:24Z</time>
      </trkpt>
      <trkpt lat="44.73994" lon="5.02658">
        <ele>299.11</ele>
        <time>2022-07-10T07:37:30Z</time>
      </trkpt>
      <trkpt lat="44.74004" lon="5.02666">
        <ele>298.63</ele>
        <time>2022-07-10T07:37:38Z</time>
      </trkpt>
      <trkpt lat="44.74018" lon="5.02672">
        <ele>298.63</ele>
        <time>2022-07-10T07:37:47Z</time>
      </trkpt>
      <trkpt lat="44.74026" lon="5.02678">
        <ele>298.15</ele>
        <time>2022-07-10T07:37:56Z</time>
      </trkpt>
      <trkpt lat="44.74035" lon="5.02683">
        <ele>298.15</ele>
        <time>2022-07-10T07:38:02Z</time>
      </trkpt>
      <trkpt lat="44.74048" lon="5.02692">
        <ele>298.15</ele>
        <time>2022-07-10T07:38:14Z</time>
      </trkpt>
      <trkpt lat="44.74069" lon="5.02698">
        <ele>298.63</ele>
        <time>2022-07-10T07:38:28Z</time>
      </trkpt>
      <trkpt lat="44.74073" lon="5.02698">
        <ele>299.11</ele>
        <time>2022-07-10T07:38:32Z</time>
      </trkpt>
      <trkpt lat="44.7408" lon="5.02696">
        <ele>298.15</ele>
        <time>2022-07-10T07:38:43Z</time>
      </trkpt>
      <trkpt lat="44.74083" lon="5.027">
        <ele>298.63</ele>
        <time>2022-07-10T07:38:47Z</time>
      </trkpt>
      <trkpt lat="44.74106" lon="5.02709">
        <ele>297.67</ele>
        <time>2022-07-10T07:39:04Z</time>
      </trkpt>
      <trkpt lat="44.74125" lon="5.02719">
        <ele>298.63</ele>
        <time>2022-07-10T07:39:21Z</time>
      </trkpt>
      <trkpt lat="44.74126" lon="5.02719">
        <ele>298.63</ele>
        <time>2022-07-10T07:39:22Z</time>
      </trkpt>
      <trkpt lat="44.74149" lon="5.02728">
        <ele>299.11</ele>
        <time>2022-07-10T07:39:41Z</time>
      </trkpt>
      <trkpt lat="44.7417" lon="5.02736">
        <ele>300.55</ele>
        <time>2022-07-10T07:39:57Z</time>
      </trkpt>
      <trkpt lat="44.74176" lon="5.0274">
        <ele>301.51</ele>
        <time>2022-07-10T07:40:02Z</time>
      </trkpt>
      <trkpt lat="44.74193" lon="5.02749">
        <ele>301.03</ele>
        <time>2022-07-10T07:40:16Z</time>
      </trkpt>
      <trkpt lat="44.742" lon="5.02749">
        <ele>300.07</ele>
        <time>2022-07-10T07:40:33Z</time>
      </trkpt>
      <trkpt lat="44.74202" lon="5.02749">
        <ele>301.51</ele>
        <time>2022-07-10T07:40:46Z</time>
      </trkpt>
      <trkpt lat="44.74225" lon="5.02757">
        <ele>301.99</ele>
        <time>2022-07-10T07:41:04Z</time>
      </trkpt>
      <trkpt lat="44.74245" lon="5.02767">
        <ele>301.99</ele>
        <time>2022-07-10T07:41:20Z</time>
      </trkpt>
      <trkpt lat="44.74273" lon="5.02767">
        <ele>302.95</ele>
        <time>2022-07-10T07:41:39Z</time>
      </trkpt>
      <trkpt lat="44.74295" lon="5.02774">
        <ele>302.95</ele>
        <time>2022-07-10T07:41:55Z</time>
      </trkpt>
      <trkpt lat="44.74319" lon="5.02779">
        <ele>302.47</ele>
        <time>2022-07-10T07:42:11Z</time>
      </trkpt>
      <trkpt lat="44.74323" lon="5.02783">
        <ele>303.91</ele>
        <time>2022-07-10T07:42:29Z</time>
      </trkpt>
      <trkpt lat="44.74339" lon="5.02786">
        <ele>303.91</ele>
        <time>2022-07-10T07:42:47Z</time>
      </trkpt>
      <trkpt lat="44.74359" lon="5.02793">
        <ele>304.88</ele>
        <time>2022-07-10T07:43:02Z</time>
      </trkpt>
      <trkpt lat="44.74372" lon="5.02793">
        <ele>304.39</ele>
        <time>2022-07-10T07:43:17Z</time>
      </trkpt>
      <trkpt lat="44.74378" lon="5.02799">
        <ele>304.88</ele>
        <time>2022-07-10T07:43:34Z</time>
      </trkpt>
      <trkpt lat="44.74379" lon="5.02799">
        <ele>305.36</ele>
        <time>2022-07-10T07:43:35Z</time>
      </trkpt>
      <trkpt lat="44.744" lon="5.02805">
        <ele>304.88</ele>
        <time>2022-07-10T07:43:51Z</time>
      </trkpt>
      <trkpt lat="44.74421" lon="5.02817">
        <ele>306.8</ele>
        <time>2022-07-10T07:44:07Z</time>
      </trkpt>
      <trkpt lat="44.74444" lon="5.02825">
        <ele>305.84</ele>
        <time>2022-07-10T07:44:22Z</time>
      </trkpt>
      <trkpt lat="44.74463" lon="5.02839">
        <ele>306.32</ele>
        <time>2022-07-10T07:44:39Z</time>
      </trkpt>
      <trkpt lat="44.74475" lon="5.02855">
        <ele>306.32</ele>
        <time>2022-07-10T07:44:53Z</time>
      </trkpt>
      <trkpt lat="44.74496" lon="5.0287">
        <ele>307.76</ele>
        <time>2022-07-10T07:45:07Z</time>
      </trkpt>
      <trkpt lat="44.74516" lon="5.02883">
        <ele>308.24</ele>
        <time>2022-07-10T07:45:25Z</time>
      </trkpt>
      <trkpt lat="44.74535" lon="5.02894">
        <ele>308.24</ele>
        <time>2022-07-10T07:45:41Z</time>
      </trkpt>
      <trkpt lat="44.74554" lon="5.02912">
        <ele>309.2</ele>
        <time>2022-07-10T07:45:56Z</time>
      </trkpt>
      <trkpt lat="44.74563" lon="5.02919">
        <ele>309.2</ele>
        <time>2022-07-10T07:46:04Z</time>
      </trkpt>
      <trkpt lat="44.74591" lon="5.0294">
        <ele>308.72</ele>
        <time>2022-07-10T07:46:24Z</time>
      </trkpt>
      <trkpt lat="44.74614" lon="5.02939">
        <ele>309.68</ele>
        <time>2022-07-10T07:46:40Z</time>
      </trkpt>
      <trkpt lat="44.7463" lon="5.02949">
        <ele>308.72</ele>
        <time>2022-07-10T07:46:55Z</time>
      </trkpt>
      <trkpt lat="44.74636" lon="5.02953">
        <ele>308.24</ele>
        <time>2022-07-10T07:47:01Z</time>
      </trkpt>
      <trkpt lat="44.74638" lon="5.02955">
        <ele>308.72</ele>
        <time>2022-07-10T07:47:03Z</time>
      </trkpt>
      <trkpt lat="44.74642" lon="5.02956">
        <ele>308.24</ele>
        <time>2022-07-10T07:47:05Z</time>
      </trkpt>
      <trkpt lat="44.74664" lon="5.02969">
        <ele>307.28</ele>
        <time>2022-07-10T07:47:21Z</time>
      </trkpt>
      <trkpt lat="44.7468" lon="5.02975">
        <ele>306.32</ele>
        <time>2022-07-10T07:47:34Z</time>
      </trkpt>
      <trkpt lat="44.74707" lon="5.02982">
        <ele>305.36</ele>
        <time>2022-07-10T07:47:52Z</time>
      </trkpt>
      <trkpt lat="44.7473" lon="5.02998">
        <ele>304.39</ele>
        <time>2022-07-10T07:48:07Z</time>
      </trkpt>
      <trkpt lat="44.7474" lon="5.03027">
        <ele>304.39</ele>
        <time>2022-07-10T07:48:26Z</time>
      </trkpt>
      <trkpt lat="44.7474" lon="5.03031">
        <ele>303.91</ele>
        <time>2022-07-10T07:48:28Z</time>
      </trkpt>
      <trkpt lat="44.74755" lon="5.03067">
        <ele>302.47</ele>
        <time>2022-07-10T07:48:45Z</time>
      </trkpt>
      <trkpt lat="44.74761" lon="5.03092">
        <ele>301.51</ele>
        <time>2022-07-10T07:49:00Z</time>
      </trkpt>
      <trkpt lat="44.74766" lon="5.03121">
        <ele>301.03</ele>
        <time>2022-07-10T07:49:16Z</time>
      </trkpt>
      <trkpt lat="44.74783" lon="5.03121">
        <ele>301.03</ele>
        <time>2022-07-10T07:49:31Z</time>
      </trkpt>
      <trkpt lat="44.7479" lon="5.03116">
        <ele>301.03</ele>
        <time>2022-07-10T07:49:36Z</time>
      </trkpt>
      <trkpt lat="44.74802" lon="5.03108">
        <ele>301.51</ele>
        <time>2022-07-10T07:49:42Z</time>
      </trkpt>
      <trkpt lat="44.74807" lon="5.03103">
        <ele>301.99</ele>
        <time>2022-07-10T07:49:46Z</time>
      </trkpt>
      <trkpt lat="44.74821" lon="5.0309">
        <ele>302.95</ele>
        <time>2022-07-10T07:49:57Z</time>
      </trkpt>
      <trkpt lat="44.74836" lon="5.03074">
        <ele>303.91</ele>
        <time>2022-07-10T07:50:10Z</time>
      </trkpt>
      <trkpt lat="44.74848" lon="5.03063">
        <ele>303.43</ele>
        <time>2022-07-10T07:50:20Z</time>
      </trkpt>
      <trkpt lat="44.74852" lon="5.0306">
        <ele>302.47</ele>
        <time>2022-07-10T07:50:25Z</time>
      </trkpt>
      <trkpt lat="44.74869" lon="5.03044">
        <ele>301.99</ele>
        <time>2022-07-10T07:50:40Z</time>
      </trkpt>
      <trkpt lat="44.74885" lon="5.03032">
        <ele>301.99</ele>
        <time>2022-07-10T07:50:58Z</time>
      </trkpt>
      <trkpt lat="44.74906" lon="5.03026">
        <ele>301.99</ele>
        <time>2022-07-10T07:51:11Z</time>
      </trkpt>
      <trkpt lat="44.74927" lon="5.03019">
        <ele>302.47</ele>
        <time>2022-07-10T07:51:27Z</time>
      </trkpt>
      <trkpt lat="44.74941" lon="5.03015">
        <ele>301.99</ele>
        <time>2022-07-10T07:51:41Z</time>
      </trkpt>
      <trkpt lat="44.74941" lon="5.03015">
        <ele>301.99</ele>
        <time>2022-07-10T07:52:01Z</time>
      </trkpt>
      <trkpt lat="44.74941" lon="5.03015">
        <ele>301.51</ele>
        <time>2022-07-10T07:52:18Z</time>
      </trkpt>
      <trkpt lat="44.74943" lon="5.03013">
        <ele>301.51</ele>
        <time>2022-07-10T07:52:21Z</time>
      </trkpt>
      <trkpt lat="44.74958" lon="5.03007">
        <ele>301.99</ele>
        <time>2022-07-10T07:52:34Z</time>
      </trkpt>
      <trkpt lat="44.74981" lon="5.03008">
        <ele>301.51</ele>
        <time>2022-07-10T07:52:52Z</time>
      </trkpt>
      <trkpt lat="44.74983" lon="5.03">
        <ele>301.03</ele>
        <time>2022-07-10T07:53:04Z</time>
      </trkpt>
      <trkpt lat="44.74983" lon="5.02999">
        <ele>298.15</ele>
        <time>2022-07-10T07:53:16Z</time>
      </trkpt>
      <trkpt lat="44.74984" lon="5.02997">
        <ele>297.67</ele>
        <time>2022-07-10T07:53:30Z</time>
      </trkpt>
      <trkpt lat="44.74985" lon="5.02996">
        <ele>297.18</ele>
        <time>2022-07-10T07:53:50Z</time>
      </trkpt>
      <trkpt lat="44.74985" lon="5.02996">
        <ele>297.18</ele>
        <time>2022-07-10T07:54:16Z</time>
      </trkpt>
      <trkpt lat="44.74985" lon="5.02996">
        <ele>297.18</ele>
        <time>2022-07-10T07:54:45Z</time>
      </trkpt>
      <trkpt lat="44.74985" lon="5.02996">
        <ele>297.18</ele>
        <time>2022-07-10T07:55:13Z</time>
      </trkpt>
      <trkpt lat="44.74985" lon="5.02995">
        <ele>297.18</ele>
        <time>2022-07-10T07:55:46Z</time>
      </trkpt>
      <trkpt lat="44.74985" lon="5.02995">
        <ele>297.67</ele>
        <time>2022-07-10T07:56:17Z</time>
      </trkpt>
      <trkpt lat="44.74984" lon="5.02996">
        <ele>297.67</ele>
        <time>2022-07-10T07:56:47Z</time>
      </trkpt>
      <trkpt lat="44.74985" lon="5.02995">
        <ele>298.15</ele>
        <time>2022-07-10T07:57:18Z</time>
      </trkpt>
      <trkpt lat="44.74985" lon="5.02995">
        <ele>298.15</ele>
        <time>2022-07-10T07:57:42Z</time>
      </trkpt>
      <trkpt lat="44.74985" lon="5.02995">
        <ele>297.67</ele>
        <time>2022-07-10T07:58:09Z</time>
      </trkpt>
      <trkpt lat="44.74985" lon="5.02994">
        <ele>298.15</ele>
        <time>2022-07-10T07:58:34Z</time>
      </trkpt>
      <trkpt lat="44.74982" lon="5.02999">
        <ele>301.51</ele>
        <time>2022-07-10T07:58:44Z</time>
      </trkpt>
      <trkpt lat="44.74982" lon="5.03">
        <ele>301.51</ele>
        <time>2022-07-10T07:58:45Z</time>
      </trkpt>
      <trkpt lat="44.74987" lon="5.03008">
        <ele>302.95</ele>
        <time>2022-07-10T07:58:53Z</time>
      </trkpt>
      <trkpt lat="44.74989" lon="5.03008">
        <ele>302.47</ele>
        <time>2022-07-10T07:58:55Z</time>
      </trkpt>
      <trkpt lat="44.75" lon="5.03004">
        <ele>302.47</ele>
        <time>2022-07-10T07:59:14Z</time>
      </trkpt>
      <trkpt lat="44.75" lon="5.03004">
        <ele>302.47</ele>
        <time>2022-07-10T07:59:41Z</time>
      </trkpt>
      <trkpt lat="44.75" lon="5.03005">
        <ele>302.95</ele>
        <time>2022-07-10T08:00:07Z</time>
      </trkpt>
      <trkpt lat="44.75" lon="5.03005">
        <ele>302.95</ele>
        <time>2022-07-10T08:00:33Z</time>
      </trkpt>
      <trkpt lat="44.75" lon="5.03003">
        <ele>302.47</ele>
        <time>2022-07-10T08:00:59Z</time>
      </trkpt>
      <trkpt lat="44.74998" lon="5.03002">
        <ele>302.95</ele>
        <time>2022-07-10T08:01:24Z</time>
      </trkpt>
      <trkpt lat="44.74998" lon="5.03002">
        <ele>302.95</ele>
        <time>2022-07-10T08:01:52Z</time>
      </trkpt>
      <trkpt lat="44.75" lon="5.03002">
        <ele>303.91</ele>
        <time>2022-07-10T08:01:59Z</time>
      </trkpt>
      <trkpt lat="44.75017" lon="5.03008">
        <ele>302.95</ele>
        <time>2022-07-10T08:02:12Z</time>
      </trkpt>
      <trkpt lat="44.75042" lon="5.03008">
        <ele>303.91</ele>
        <time>2022-07-10T08:02:32Z</time>
      </trkpt>
      <trkpt lat="44.75054" lon="5.03008">
        <ele>303.43</ele>
        <time>2022-07-10T08:02:44Z</time>
      </trkpt>
      <trkpt lat="44.75054" lon="5.03008">
        <ele>303.91</ele>
        <time>2022-07-10T08:02:48Z</time>
      </trkpt>
      <trkpt lat="44.75057" lon="5.03008">
        <ele>304.39</ele>
        <time>2022-07-10T08:02:50Z</time>
      </trkpt>
      <trkpt lat="44.75065" lon="5.03009">
        <ele>303.91</ele>
        <time>2022-07-10T08:02:55Z</time>
      </trkpt>
      <trkpt lat="44.75084" lon="5.03004">
        <ele>303.91</ele>
        <time>2022-07-10T08:03:10Z</time>
      </trkpt>
      <trkpt lat="44.75088" lon="5.03001">
        <ele>303.91</ele>
        <time>2022-07-10T08:03:27Z</time>
      </trkpt>
      <trkpt lat="44.75091" lon="5.02999">
        <ele>303.91</ele>
        <time>2022-07-10T08:03:33Z</time>
      </trkpt>
      <trkpt lat="44.75114" lon="5.02995">
        <ele>305.36</ele>
        <time>2022-07-10T08:03:51Z</time>
      </trkpt>
      <trkpt lat="44.75116" lon="5.02994">
        <ele>305.36</ele>
        <time>2022-07-10T08:03:53Z</time>
      </trkpt>
      <trkpt lat="44.75127" lon="5.02992">
        <ele>305.36</ele>
        <time>2022-07-10T08:04:01Z</time>
      </trkpt>
      <trkpt lat="44.7513" lon="5.0299">
        <ele>304.88</ele>
        <time>2022-07-10T08:04:12Z</time>
      </trkpt>
      <trkpt lat="44.75138" lon="5.02999">
        <ele>304.88</ele>
        <time>2022-07-10T08:04:19Z</time>
      </trkpt>
      <trkpt lat="44.75146" lon="5.03001">
        <ele>305.36</ele>
        <time>2022-07-10T08:04:27Z</time>
      </trkpt>
      <trkpt lat="44.75149" lon="5.03002">
        <ele>305.36</ele>
        <time>2022-07-10T08:04:29Z</time>
      </trkpt>
      <trkpt lat="44.75159" lon="5.03008">
        <ele>305.36</ele>
        <time>2022-07-10T08:04:37Z</time>
      </trkpt>
      <trkpt lat="44.75166" lon="5.03012">
        <ele>304.88</ele>
        <time>2022-07-10T08:04:42Z</time>
      </trkpt>
      <trkpt lat="44.7517" lon="5.03013">
        <ele>304.88</ele>
        <time>2022-07-10T08:04:47Z</time>
      </trkpt>
      <trkpt lat="44.75185" lon="5.03017">
        <ele>305.36</ele>
        <time>2022-07-10T08:04:58Z</time>
      </trkpt>
      <trkpt lat="44.752" lon="5.03016">
        <ele>304.88</ele>
        <time>2022-07-10T08:05:08Z</time>
      </trkpt>
      <trkpt lat="44.75219" lon="5.03011">
        <ele>305.84</ele>
        <time>2022-07-10T08:05:23Z</time>
      </trkpt>
      <trkpt lat="44.75233" lon="5.0301">
        <ele>307.28</ele>
        <time>2022-07-10T08:05:33Z</time>
      </trkpt>
      <trkpt lat="44.75252" lon="5.03015">
        <ele>307.76</ele>
        <time>2022-07-10T08:05:46Z</time>
      </trkpt>
      <trkpt lat="44.75263" lon="5.03016">
        <ele>304.88</ele>
        <time>2022-07-10T08:05:55Z</time>
      </trkpt>
      <trkpt lat="44.75283" lon="5.0302">
        <ele>304.39</ele>
        <time>2022-07-10T08:06:11Z</time>
      </trkpt>
      <trkpt lat="44.75284" lon="5.0302">
        <ele>304.39</ele>
        <time>2022-07-10T08:06:12Z</time>
      </trkpt>
      <trkpt lat="44.75285" lon="5.03022">
        <ele>305.36</ele>
        <time>2022-07-10T08:06:14Z</time>
      </trkpt>
      <trkpt lat="44.75295" lon="5.03023">
        <ele>304.39</ele>
        <time>2022-07-10T08:06:20Z</time>
      </trkpt>
      <trkpt lat="44.75298" lon="5.03023">
        <ele>307.28</ele>
        <time>2022-07-10T08:06:22Z</time>
      </trkpt>
      <trkpt lat="44.75299" lon="5.03024">
        <ele>303.91</ele>
        <time>2022-07-10T08:06:23Z</time>
      </trkpt>
      <trkpt lat="44.75318" lon="5.03026">
        <ele>302.95</ele>
        <time>2022-07-10T08:06:36Z</time>
      </trkpt>
      <trkpt lat="44.75325" lon="5.03027">
        <ele>302.47</ele>
        <time>2022-07-10T08:06:40Z</time>
      </trkpt>
      <trkpt lat="44.75342" lon="5.03032">
        <ele>301.99</ele>
        <time>2022-07-10T08:06:55Z</time>
      </trkpt>
      <trkpt lat="44.75362" lon="5.03036">
        <ele>302.47</ele>
        <time>2022-07-10T08:07:08Z</time>
      </trkpt>
      <trkpt lat="44.75382" lon="5.03042">
        <ele>302.47</ele>
        <time>2022-07-10T08:07:20Z</time>
      </trkpt>
      <trkpt lat="44.75393" lon="5.03044">
        <ele>302.95</ele>
        <time>2022-07-10T08:07:30Z</time>
      </trkpt>
      <trkpt lat="44.75413" lon="5.03047">
        <ele>304.88</ele>
        <time>2022-07-10T08:07:44Z</time>
      </trkpt>
      <trkpt lat="44.75421" lon="5.03049">
        <ele>304.39</ele>
        <time>2022-07-10T08:07:50Z</time>
      </trkpt>
      <trkpt lat="44.75434" lon="5.03048">
        <ele>303.43</ele>
        <time>2022-07-10T08:07:58Z</time>
      </trkpt>
      <trkpt lat="44.75442" lon="5.03046">
        <ele>302.47</ele>
        <time>2022-07-10T08:08:07Z</time>
      </trkpt>
      <trkpt lat="44.75445" lon="5.03047">
        <ele>302.47</ele>
        <time>2022-07-10T08:08:10Z</time>
      </trkpt>
      <trkpt lat="44.75449" lon="5.03047">
        <ele>301.99</ele>
        <time>2022-07-10T08:08:13Z</time>
      </trkpt>
      <trkpt lat="44.75453" lon="5.03048">
        <ele>301.99</ele>
        <time>2022-07-10T08:08:16Z</time>
      </trkpt>
      <trkpt lat="44.75472" lon="5.03051">
        <ele>301.03</ele>
        <time>2022-07-10T08:08:27Z</time>
      </trkpt>
      <trkpt lat="44.75479" lon="5.0305">
        <ele>300.07</ele>
        <time>2022-07-10T08:08:34Z</time>
      </trkpt>
      <trkpt lat="44.75484" lon="5.0305">
        <ele>299.59</ele>
        <time>2022-07-10T08:08:38Z</time>
      </trkpt>
      <trkpt lat="44.755" lon="5.03046">
        <ele>298.15</ele>
        <time>2022-07-10T08:08:51Z</time>
      </trkpt>
      <trkpt lat="44.75501" lon="5.03045">
        <ele>297.18</ele>
        <time>2022-07-10T08:08:54Z</time>
      </trkpt>
      <trkpt lat="44.75507" lon="5.03046">
        <ele>297.18</ele>
        <time>2022-07-10T08:08:58Z</time>
      </trkpt>
      <trkpt lat="44.75526" lon="5.03046">
        <ele>295.74</ele>
        <time>2022-07-10T08:09:10Z</time>
      </trkpt>
      <trkpt lat="44.75534" lon="5.03043">
        <ele>294.78</ele>
        <time>2022-07-10T08:09:19Z</time>
      </trkpt>
      <trkpt lat="44.75562" lon="5.0304">
        <ele>293.34</ele>
        <time>2022-07-10T08:09:36Z</time>
      </trkpt>
      <trkpt lat="44.7558" lon="5.03039">
        <ele>293.34</ele>
        <time>2022-07-10T08:09:49Z</time>
      </trkpt>
      <trkpt lat="44.756" lon="5.03044">
        <ele>291.9</ele>
        <time>2022-07-10T08:10:03Z</time>
      </trkpt>
      <trkpt lat="44.75618" lon="5.03041">
        <ele>289.97</ele>
        <time>2022-07-10T08:10:15Z</time>
      </trkpt>
      <trkpt lat="44.75624" lon="5.0304">
        <ele>289.01</ele>
        <time>2022-07-10T08:10:21Z</time>
      </trkpt>
      <trkpt lat="44.75648" lon="5.0304">
        <ele>287.57</ele>
        <time>2022-07-10T08:10:38Z</time>
      </trkpt>
      <trkpt lat="44.75667" lon="5.03043">
        <ele>285.17</ele>
        <time>2022-07-10T08:10:54Z</time>
      </trkpt>
      <trkpt lat="44.7569" lon="5.03042">
        <ele>283.25</ele>
        <time>2022-07-10T08:11:09Z</time>
      </trkpt>
      <trkpt lat="44.75694" lon="5.03042">
        <ele>282.77</ele>
        <time>2022-07-10T08:11:12Z</time>
      </trkpt>
      <trkpt lat="44.75719" lon="5.03054">
        <ele>281.8</ele>
        <time>2022-07-10T08:11:29Z</time>
      </trkpt>
      <trkpt lat="44.75733" lon="5.03058">
        <ele>282.28</ele>
        <time>2022-07-10T08:11:38Z</time>
      </trkpt>
      <trkpt lat="44.75743" lon="5.03063">
        <ele>282.28</ele>
        <time>2022-07-10T08:11:49Z</time>
      </trkpt>
      <trkpt lat="44.75751" lon="5.03066">
        <ele>282.28</ele>
        <time>2022-07-10T08:11:54Z</time>
      </trkpt>
      <trkpt lat="44.75774" lon="5.03075">
        <ele>281.8</ele>
        <time>2022-07-10T08:12:08Z</time>
      </trkpt>
      <trkpt lat="44.75791" lon="5.03081">
        <ele>281.32</ele>
        <time>2022-07-10T08:12:20Z</time>
      </trkpt>
      <trkpt lat="44.75799" lon="5.03084">
        <ele>281.32</ele>
        <time>2022-07-10T08:12:26Z</time>
      </trkpt>
      <trkpt lat="44.75809" lon="5.03087">
        <ele>281.8</ele>
        <time>2022-07-10T08:12:33Z</time>
      </trkpt>
      <trkpt lat="44.75826" lon="5.03094">
        <ele>280.84</ele>
        <time>2022-07-10T08:12:45Z</time>
      </trkpt>
      <trkpt lat="44.75832" lon="5.03095">
        <ele>281.32</ele>
        <time>2022-07-10T08:12:49Z</time>
      </trkpt>
      <trkpt lat="44.75855" lon="5.03105">
        <ele>280.36</ele>
        <time>2022-07-10T08:13:03Z</time>
      </trkpt>
      <trkpt lat="44.75871" lon="5.0311">
        <ele>280.36</ele>
        <time>2022-07-10T08:13:17Z</time>
      </trkpt>
      <trkpt lat="44.75898" lon="5.03121">
        <ele>279.4</ele>
        <time>2022-07-10T08:13:36Z</time>
      </trkpt>
      <trkpt lat="44.7592" lon="5.03133">
        <ele>278.92</ele>
        <time>2022-07-10T08:13:53Z</time>
      </trkpt>
      <trkpt lat="44.75935" lon="5.03134">
        <ele>277.48</ele>
        <time>2022-07-10T08:14:06Z</time>
      </trkpt>
      <trkpt lat="44.75937" lon="5.03137">
        <ele>278.44</ele>
        <time>2022-07-10T08:14:09Z</time>
      </trkpt>
      <trkpt lat="44.75955" lon="5.03147">
        <ele>277</ele>
        <time>2022-07-10T08:14:24Z</time>
      </trkpt>
      <trkpt lat="44.75974" lon="5.03143">
        <ele>276.04</ele>
        <time>2022-07-10T08:14:40Z</time>
      </trkpt>
      <trkpt lat="44.75996" lon="5.0314">
        <ele>274.59</ele>
        <time>2022-07-10T08:14:55Z</time>
      </trkpt>
      <trkpt lat="44.7602" lon="5.03139">
        <ele>273.63</ele>
        <time>2022-07-10T08:15:11Z</time>
      </trkpt>
      <trkpt lat="44.76048" lon="5.0314">
        <ele>273.15</ele>
        <time>2022-07-10T08:15:29Z</time>
      </trkpt>
      <trkpt lat="44.7607" lon="5.03143">
        <ele>273.15</ele>
        <time>2022-07-10T08:15:46Z</time>
      </trkpt>
      <trkpt lat="44.76095" lon="5.03148">
        <ele>272.67</ele>
        <time>2022-07-10T08:16:02Z</time>
      </trkpt>
      <trkpt lat="44.7612" lon="5.03152">
        <ele>274.11</ele>
        <time>2022-07-10T08:16:18Z</time>
      </trkpt>
      <trkpt lat="44.76145" lon="5.0316">
        <ele>274.59</ele>
        <time>2022-07-10T08:16:36Z</time>
      </trkpt>
      <trkpt lat="44.76166" lon="5.03166">
        <ele>275.07</ele>
        <time>2022-07-10T08:16:51Z</time>
      </trkpt>
      <trkpt lat="44.76185" lon="5.03173">
        <ele>277.48</ele>
        <time>2022-07-10T08:17:05Z</time>
      </trkpt>
      <trkpt lat="44.7619" lon="5.03174">
        <ele>277.96</ele>
        <time>2022-07-10T08:17:11Z</time>
      </trkpt>
      <trkpt lat="44.76203" lon="5.03178">
        <ele>279.4</ele>
        <time>2022-07-10T08:17:21Z</time>
      </trkpt>
      <trkpt lat="44.76208" lon="5.03181">
        <ele>279.4</ele>
        <time>2022-07-10T08:17:25Z</time>
      </trkpt>
      <trkpt lat="44.76227" lon="5.0319">
        <ele>281.8</ele>
        <time>2022-07-10T08:17:39Z</time>
      </trkpt>
      <trkpt lat="44.76239" lon="5.03195">
        <ele>282.77</ele>
        <time>2022-07-10T08:17:49Z</time>
      </trkpt>
      <trkpt lat="44.76242" lon="5.03196">
        <ele>283.25</ele>
        <time>2022-07-10T08:17:52Z</time>
      </trkpt>
      <trkpt lat="44.76262" lon="5.03207">
        <ele>284.69</ele>
        <time>2022-07-10T08:18:07Z</time>
      </trkpt>
      <trkpt lat="44.76273" lon="5.03216">
        <ele>284.21</ele>
        <time>2022-07-10T08:18:16Z</time>
      </trkpt>
      <trkpt lat="44.76279" lon="5.03222">
        <ele>284.69</ele>
        <time>2022-07-10T08:18:22Z</time>
      </trkpt>
      <trkpt lat="44.76292" lon="5.0323">
        <ele>283.73</ele>
        <time>2022-07-10T08:18:34Z</time>
      </trkpt>
      <trkpt lat="44.7631" lon="5.03248">
        <ele>282.28</ele>
        <time>2022-07-10T08:18:51Z</time>
      </trkpt>
      <trkpt lat="44.7631" lon="5.03249">
        <ele>282.28</ele>
        <time>2022-07-10T08:18:52Z</time>
      </trkpt>
      <trkpt lat="44.76323" lon="5.03265">
        <ele>281.32</ele>
        <time>2022-07-10T08:19:05Z</time>
      </trkpt>
      <trkpt lat="44.76338" lon="5.03276">
        <ele>280.84</ele>
        <time>2022-07-10T08:19:16Z</time>
      </trkpt>
      <trkpt lat="44.76352" lon="5.0329">
        <ele>280.36</ele>
        <time>2022-07-10T08:19:30Z</time>
      </trkpt>
      <trkpt lat="44.7636" lon="5.03301">
        <ele>279.4</ele>
        <time>2022-07-10T08:19:40Z</time>
      </trkpt>
      <trkpt lat="44.76388" lon="5.03313">
        <ele>280.84</ele>
        <time>2022-07-10T08:19:59Z</time>
      </trkpt>
      <trkpt lat="44.7641" lon="5.0333">
        <ele>281.8</ele>
        <time>2022-07-10T08:20:15Z</time>
      </trkpt>
      <trkpt lat="44.76413" lon="5.03337">
        <ele>283.25</ele>
        <time>2022-07-10T08:20:18Z</time>
      </trkpt>
      <trkpt lat="44.76422" lon="5.03345">
        <ele>285.17</ele>
        <time>2022-07-10T08:20:27Z</time>
      </trkpt>
      <trkpt lat="44.76423" lon="5.03345">
        <ele>284.69</ele>
        <time>2022-07-10T08:20:28Z</time>
      </trkpt>
      <trkpt lat="44.76452" lon="5.03354">
        <ele>282.77</ele>
        <time>2022-07-10T08:20:49Z</time>
      </trkpt>
      <trkpt lat="44.76477" lon="5.03366">
        <ele>282.77</ele>
        <time>2022-07-10T08:21:08Z</time>
      </trkpt>
      <trkpt lat="44.76496" lon="5.03377">
        <ele>281.8</ele>
        <time>2022-07-10T08:21:24Z</time>
      </trkpt>
      <trkpt lat="44.76522" lon="5.03384">
        <ele>278.92</ele>
        <time>2022-07-10T08:21:43Z</time>
      </trkpt>
      <trkpt lat="44.76551" lon="5.03392">
        <ele>278.44</ele>
        <time>2022-07-10T08:22:02Z</time>
      </trkpt>
      <trkpt lat="44.76572" lon="5.03399">
        <ele>277</ele>
        <time>2022-07-10T08:22:17Z</time>
      </trkpt>
      <trkpt lat="44.76586" lon="5.03404">
        <ele>275.56</ele>
        <time>2022-07-10T08:22:32Z</time>
      </trkpt>
      <trkpt lat="44.76586" lon="5.03404">
        <ele>275.07</ele>
        <time>2022-07-10T08:22:56Z</time>
      </trkpt>
      <trkpt lat="44.76595" lon="5.03413">
        <ele>274.11</ele>
        <time>2022-07-10T08:23:10Z</time>
      </trkpt>
      <trkpt lat="44.76601" lon="5.03419">
        <ele>274.59</ele>
        <time>2022-07-10T08:23:19Z</time>
      </trkpt>
      <trkpt lat="44.76624" lon="5.03409">
        <ele>273.15</ele>
        <time>2022-07-10T08:23:35Z</time>
      </trkpt>
      <trkpt lat="44.76634" lon="5.03414">
        <ele>272.19</ele>
        <time>2022-07-10T08:23:44Z</time>
      </trkpt>
      <trkpt lat="44.76661" lon="5.03405">
        <ele>270.27</ele>
        <time>2022-07-10T08:24:02Z</time>
      </trkpt>
      <trkpt lat="44.76676" lon="5.03387">
        <ele>269.79</ele>
        <time>2022-07-10T08:24:17Z</time>
      </trkpt>
      <trkpt lat="44.76681" lon="5.03383">
        <ele>269.31</ele>
        <time>2022-07-10T08:24:21Z</time>
      </trkpt>
      <trkpt lat="44.76695" lon="5.03374">
        <ele>269.31</ele>
        <time>2022-07-10T08:24:35Z</time>
      </trkpt>
      <trkpt lat="44.767" lon="5.03372">
        <ele>270.27</ele>
        <time>2022-07-10T08:24:45Z</time>
      </trkpt>
      <trkpt lat="44.76706" lon="5.03365">
        <ele>270.75</ele>
        <time>2022-07-10T08:24:50Z</time>
      </trkpt>
      <trkpt lat="44.76723" lon="5.03352">
        <ele>271.71</ele>
        <time>2022-07-10T08:25:03Z</time>
      </trkpt>
      <trkpt lat="44.76732" lon="5.03346">
        <ele>273.63</ele>
        <time>2022-07-10T08:25:10Z</time>
      </trkpt>
      <trkpt lat="44.76737" lon="5.03341">
        <ele>275.07</ele>
        <time>2022-07-10T08:25:16Z</time>
      </trkpt>
      <trkpt lat="44.76749" lon="5.03332">
        <ele>278.44</ele>
        <time>2022-07-10T08:25:28Z</time>
      </trkpt>
      <trkpt lat="44.7675" lon="5.03332">
        <ele>278.44</ele>
        <time>2022-07-10T08:25:29Z</time>
      </trkpt>
      <trkpt lat="44.76753" lon="5.03327">
        <ele>279.4</ele>
        <time>2022-07-10T08:25:35Z</time>
      </trkpt>
      <trkpt lat="44.76763" lon="5.03318">
        <ele>282.77</ele>
        <time>2022-07-10T08:25:46Z</time>
      </trkpt>
      <trkpt lat="44.76764" lon="5.03317">
        <ele>282.28</ele>
        <time>2022-07-10T08:25:47Z</time>
      </trkpt>
      <trkpt lat="44.7677" lon="5.03314">
        <ele>283.73</ele>
        <time>2022-07-10T08:25:53Z</time>
      </trkpt>
      <trkpt lat="44.7678" lon="5.03305">
        <ele>282.77</ele>
        <time>2022-07-10T08:26:03Z</time>
      </trkpt>
      <trkpt lat="44.76793" lon="5.03297">
        <ele>282.28</ele>
        <time>2022-07-10T08:26:17Z</time>
      </trkpt>
      <trkpt lat="44.76798" lon="5.03297">
        <ele>281.32</ele>
        <time>2022-07-10T08:26:23Z</time>
      </trkpt>
      <trkpt lat="44.76819" lon="5.03303">
        <ele>279.88</ele>
        <time>2022-07-10T08:26:41Z</time>
      </trkpt>
      <trkpt lat="44.76839" lon="5.033">
        <ele>277.96</ele>
        <time>2022-07-10T08:26:54Z</time>
      </trkpt>
      <trkpt lat="44.76854" lon="5.0331">
        <ele>278.92</ele>
        <time>2022-07-10T08:27:09Z</time>
      </trkpt>
      <trkpt lat="44.76858" lon="5.03309">
        <ele>277.48</ele>
        <time>2022-07-10T08:27:14Z</time>
      </trkpt>
      <trkpt lat="44.76864" lon="5.03311">
        <ele>276.52</ele>
        <time>2022-07-10T08:27:18Z</time>
      </trkpt>
      <trkpt lat="44.76886" lon="5.03312">
        <ele>277.48</ele>
        <time>2022-07-10T08:27:34Z</time>
      </trkpt>
      <trkpt lat="44.76888" lon="5.03312">
        <ele>277.48</ele>
        <time>2022-07-10T08:27:35Z</time>
      </trkpt>
      <trkpt lat="44.76894" lon="5.03304">
        <ele>276.52</ele>
        <time>2022-07-10T08:27:39Z</time>
      </trkpt>
      <trkpt lat="44.76902" lon="5.03292">
        <ele>277</ele>
        <time>2022-07-10T08:27:47Z</time>
      </trkpt>
    </trkseg>
  </trk>
</gpx>